Latitude: N 50° 09' 49" Longitude: W 05° 11' 53" Elevation: 168m ASL

There are 26 visitors online

Adverts

<- Previous Day | Today | Next Day ->

All Data for 08 December 2017

Time
A - D
Temp
A - D
Dew Point
A - D
Humidity
A - D
Pressure
A - D
Wind
A - D
Wind Dir Gust
A - D
Rain Rate
A - D
Rain Total
11:24 6.5 1.0 68 1023.8 18.3 W 22.8 0.0 0.5
11:26 6.6 1.1 68 1023.8 21.3 NW 22.8 0.0 0.5
11:27 6.6 1.1 68 1023.6 13.0 NW 22.8 0.0 0.5
11:28 6.6 1.1 68 1023.8 11.4 NW 22.8 0.0 0.5
11:29 6.6 1.1 68 1023.7 13.0 NW 22.8 0.0 0.5
11:21 6.5 1.2 69 1023.6 17.4 NW 22.8 0.0 0.5
11:22 6.5 1.2 69 1023.7 16.8 N 22.8 0.0 0.5
11:23 6.5 1.2 69 1023.6 15.9 N 22.8 0.0 0.5
11:25 6.5 1.2 69 1023.8 11.4 N 22.8 0.0 0.5
11:30 6.7 1.4 69 1023.7 13.0 WSW 22.8 0.0 0.5
11:31 6.7 1.4 69 1023.8 13.6 NW 21.3 0.0 0.5
11:32 6.7 1.4 69 1023.8 12.1 NW 21.3 0.0 0.5
11:34 6.8 1.5 69 1023.9 22.1 NW 22.1 0.0 0.5
11:35 6.8 1.5 69 1023.6 15.9 W 22.1 0.0 0.5
11:36 6.7 1.4 69 1023.8 17.4 N 22.1 0.0 0.5
11:37 6.7 1.4 69 1023.7 13.6 NW 22.1 0.0 0.5
11:17 6.4 1.3 70 1023.7 17.4 W 21.3 0.0 0.5
11:18 6.4 1.3 70 1023.7 15.2 W 21.3 0.0 0.5
11:19 6.4 1.3 70 1023.7 13.6 W 21.3 0.0 0.5
11:20 6.4 1.3 70 1023.7 16.8 SW 21.3 0.0 0.5
11:33 6.7 1.6 70 1023.7 16.8 NW 21.3 0.0 0.5
11:39 6.7 1.6 70 1023.9 9.8 W 22.1 0.0 0.5
11:40 6.6 1.5 70 1023.6 20.6 W 22.1 0.0 0.5
11:41 6.6 1.5 70 1023.7 21.3 W 22.1 0.0 0.5
11:42 6.5 1.4 70 1023.6 16.8 W 22.1 0.0 0.5
11:43 6.5 1.4 70 1023.8 14.5 N 22.1 0.0 0.5
11:44 6.5 1.4 70 1023.5 22.1 NW 22.1 0.0 0.5
11:45 6.4 1.3 70 1023.8 16.8 W 22.1 0.0 0.5
11:15 6.4 1.5 71 1023.7 21.3 W 21.3 0.0 0.5
11:16 6.4 1.5 71 1023.7 14.5 W 21.3 0.0 0.5
11:46 6.3 1.4 71 1023.8 13.6 NW 22.1 0.0 0.5
11:47 6.3 1.4 71 1023.7 16.8 W 22.1 0.0 0.5
11:48 6.3 1.4 71 1023.7 15.9 NW 22.1 0.0 0.5
11:49 6.2 1.3 71 1023.7 11.4 W 22.1 0.0 0.5
11:00 5.7 1.1 72 1023.9 22.1 W 22.1 0.0 0.5
11:01 5.7 1.1 72 1023.8 22.1 W 22.1 0.0 0.5
11:02 5.8 1.1 72 1023.8 15.2 W 22.1 0.0 0.5
11:03 5.8 1.1 72 1023.8 15.2 NW 22.1 0.0 0.5
11:04 5.9 1.2 72 1023.8 19.7 NW 22.1 0.0 0.5
11:05 5.9 1.2 72 1023.9 15.2 NW 22.1 0.0 0.5
11:13 6.4 1.7 72 1023.6 13.0 SW 19.7 0.0 0.5
11:14 6.4 1.7 72 1023.6 14.5 W 19.7 0.0 0.5
11:50 6.2 1.5 72 1023.7 17.4 NW 22.1 0.0 0.5
11:51 6.1 1.4 72 1023.7 14.5 NW 22.1 0.0 0.5
11:52 6.1 1.4 72 1023.8 19.0 NW 22.1 0.0 0.5
10:58 5.6 1.1 73 1023.7 17.4 W 19.7 0.0 0.5
10:59 5.6 1.1 73 1023.7 18.3 W 19.7 0.0 0.5
11:07 6.1 1.6 73 1023.8 10.7 SW 22.1 0.0 0.5
11:08 6.2 1.7 73 1023.9 11.4 W 22.1 0.0 0.5
11:10 6.2 1.7 73 1023.7 13.6 NW 22.1 0.0 0.5
11:11 6.3 1.8 73 1023.8 14.5 NW 19.7 0.0 0.5
11:53 6.0 1.5 73 1023.9 13.0 NW 22.1 0.0 0.5
10:56 5.5 1.2 74 1023.9 15.9 W 19.7 0.0 0.5
10:57 5.5 1.2 74 1023.8 19.7 W 19.7 0.0 0.5
11:54 5.9 1.6 74 1023.9 14.5 NW 19.0 0.0 0.5
11:55 5.9 1.6 74 1023.8 14.5 NW 19.0 0.0 0.5
11:56 5.8 1.5 74 1023.7 16.8 W 19.0 0.0 0.5
20:07 5.0 0.8 74 1024.3 10.7 S 13.0 0.0 1.0
20:08 5.0 0.8 74 1024.3 10.7 NW 13.0 0.0 1.0
20:10 5.0 0.8 74 1024.2 7.6 W 13.0 0.0 1.0
20:13 5.1 0.9 74 1024.3 9.8 W 13.0 0.0 1.0
11:57 5.6 1.5 75 1023.8 12.1 W 19.0 0.0 0.5
11:58 5.6 1.5 75 1023.8 9.8 NW 19.0 0.0 0.5
14:56 6.0 1.9 75 1023.7 15.9 NW 19.0 0.0 0.9
14:58 5.9 1.8 75 1023.8 22.8 W 22.8 0.0 0.9
14:59 5.9 1.8 75 1023.8 17.4 W 22.8 0.0 0.9
15:29 5.6 1.5 75 1023.7 16.8 NW 21.3 0.0 0.9
15:30 5.5 1.4 75 1023.8 15.9 W 21.3 0.0 0.9
15:31 5.5 1.4 75 1023.8 12.1 W 21.3 0.0 0.9
15:32 5.5 1.4 75 1023.7 16.8 WNW 21.3 0.0 0.9
15:33 5.5 1.4 75 1023.8 13.0 NW 21.3 0.0 0.9
15:34 5.5 1.4 75 1023.8 11.4 W 21.3 0.0 0.9
15:35 5.4 1.3 75 1023.6 9.8 W 21.3 0.0 0.9
15:36 5.4 1.3 75 1023.8 13.0 NW 19.0 0.0 0.9
15:37 5.4 1.3 75 1023.8 10.7 NW 19.0 0.0 0.9
15:38 5.4 1.3 75 1023.7 7.6 NW 19.0 0.0 0.9
15:39 5.4 1.3 75 1023.6 12.1 W 16.8 0.0 0.9
15:40 5.3 1.2 75 1023.8 13.0 W 16.8 0.0 0.9
15:41 5.3 1.2 75 1023.7 12.1 NW 16.8 0.0 0.9
15:42 5.3 1.2 75 1023.8 12.1 NW 14.5 0.0 0.9
15:44 5.2 1.1 75 1023.8 15.2 NW 15.2 0.0 0.9
15:45 5.2 1.1 75 1023.8 22.8 NW 22.8 0.0 0.9
15:46 5.2 1.1 75 1023.7 16.8 W 22.8 0.0 0.9
15:47 5.2 1.1 75 1023.7 16.8 N 22.8 0.0 0.9
15:48 5.2 1.1 75 1024.0 14.5 W 22.8 0.0 0.9
15:49 5.2 1.1 75 1023.9 13.6 W 22.8 0.0 0.9
15:50 5.2 1.1 75 1024.0 13.0 W 22.8 0.0 0.9
15:51 5.2 1.1 75 1024.0 15.2 N 22.8 0.0 0.9
15:52 5.2 1.1 75 1023.9 17.4 NW 22.8 0.0 0.9
15:53 5.2 1.1 75 1024.0 9.8 W 22.8 0.0 0.9
15:54 5.2 1.1 75 1023.9 15.9 W 22.8 0.0 0.9
16:21 5.0 0.9 75 1024.1 14.5 W 17.4 0.0 0.9
16:22 5.0 0.9 75 1024.0 17.4 W 17.4 0.0 0.9
16:23 5.0 0.9 75 1024.0 9.8 W 17.4 0.0 0.9
16:25 5.0 0.9 75 1023.9 10.7 NW 17.4 0.0 0.9
16:30 4.9 0.8 75 1024.1 11.4 NW 17.4 0.0 0.9
16:31 4.9 0.8 75 1024.1 14.5 W 17.4 0.0 0.9
16:32 4.8 0.7 75 1023.9 13.6 N 17.4 0.0 0.9
16:33 4.8 0.7 75 1024.1 9.2 NW 14.5 0.0 0.9
16:34 4.8 0.7 75 1024.1 13.6 NW 14.5 0.0 0.9
16:35 4.8 0.7 75 1024.1 14.5 W 14.5 0.0 0.9
16:36 4.7 0.7 75 1024.1 9.8 W 15.2 0.0 0.9
16:39 4.8 0.7 75 1024.2 18.3 W 18.3 0.0 0.9
16:41 4.8 0.7 75 1024.2 12.1 W 18.3 0.0 0.9
16:42 4.8 0.7 75 1024.1 11.4 NW 18.3 0.0 0.9
18:17 5.1 1.0 75 1024.4 12.1 NW 17.4 0.0 1.0
18:18 5.1 1.0 75 1024.4 11.4 W 17.4 0.0 1.0
18:19 5.1 1.0 75 1024.5 11.4 NW 17.4 0.0 1.0
18:21 5.1 1.0 75 1024.6 9.8 W 17.4 0.0 1.0
19:07 5.2 1.1 75 1024.6 11.4 W 14.5 0.0 1.0
19:08 5.2 1.1 75 1024.5 12.1 W 14.5 0.0 1.0
19:10 5.2 1.1 75 1024.5 11.4 W 14.5 0.0 1.0
19:23 5.3 1.2 75 1024.5 15.9 W 15.9 0.0 1.0
19:26 5.3 1.2 75 1024.4 9.8 NW 15.9 0.0 1.0
19:44 5.2 1.1 75 1024.4 9.2 W 13.0 0.0 1.0
19:45 5.1 1.0 75 1024.6 10.7 N 13.0 0.0 1.0
19:46 5.1 1.0 75 1024.4 13.6 NW 13.6 0.0 1.0
19:47 5.1 1.0 75 1024.4 16.8 W 16.8 0.0 1.0
19:49 5.1 1.0 75 1024.5 9.2 W 16.8 0.0 1.0
19:50 5.2 1.1 75 1024.3 12.1 W 16.8 0.0 1.0
19:51 5.1 1.0 75 1024.3 12.1 W 16.8 0.0 1.0
19:52 5.1 1.0 75 1024.2 6.9 W 16.8 0.0 1.0
19:54 5.1 1.0 75 1024.4 8.3 W 16.8 0.0 1.0
19:57 5.1 1.0 75 1024.2 9.2 N 15.2 0.0 1.0
19:58 5.0 0.9 75 1024.2 10.7 W 15.2 0.0 1.0
19:59 5.0 0.9 75 1024.2 9.2 W 15.2 0.0 1.0
20:01 5.0 0.9 75 1024.3 6.9 W 12.1 0.0 1.0
20:03 5.0 0.9 75 1024.2 6.9 W 11.4 0.0 1.0
20:04 5.0 0.9 75 1024.2 6.9 W 11.4 0.0 1.0
20:05 5.0 0.9 75 1024.2 6.9 W 10.7 0.0 1.0
20:14 5.0 0.9 75 1024.3 9.2 NW 13.0 0.0 1.0
20:16 5.1 1.0 75 1024.2 8.3 NW 13.0 0.0 1.0
20:17 5.1 1.0 75 1024.4 8.3 NW 12.1 0.0 1.0
20:19 5.1 1.0 75 1024.2 12.1 W 12.1 0.0 1.0
20:23 5.1 1.0 75 1024.2 10.7 W 12.1 0.0 1.0
20:24 5.1 1.0 75 1024.4 10.7 W 12.1 0.0 1.0
10:36 5.4 1.5 76 1023.4 14.5 NW 22.1 0.0 0.5
10:37 5.4 1.5 76 1023.5 14.5 NW 22.1 0.0 0.5
11:59 5.5 1.6 76 1023.7 11.4 NW 19.0 0.0 0.5
12:00 5.5 1.6 76 1023.8 13.6 W 19.0 0.0 0.5
12:01 5.4 1.5 76 1023.8 14.5 NW 19.0 0.0 0.5
12:02 5.4 1.5 76 1023.5 14.5 NW 16.8 0.0 0.5
12:03 5.4 1.5 76 1023.8 14.5 NW 16.8 0.0 0.5
12:05 5.4 1.5 76 1023.6 14.5 NW 16.8 0.0 0.5
14:13 6.6 2.7 76 1023.8 16.8 W 21.3 0.0 0.9
14:14 6.7 2.8 76 1023.7 19.0 NW 21.3 0.0 0.9
14:15 6.7 2.8 76 1023.9 19.0 S 21.3 0.0 0.9
14:16 6.7 2.8 76 1024.0 15.2 W 21.3 0.0 0.9
14:18 6.7 2.8 76 1023.7 19.7 W 21.3 0.0 0.9
14:19 6.7 2.8 76 1024.0 18.3 NW 21.3 0.0 0.9
14:20 6.6 2.7 76 1023.8 18.3 SW 19.7 0.0 0.9
14:21 6.6 2.7 76 1023.9 17.4 W 19.7 0.0 0.9
14:22 6.6 2.7 76 1023.8 14.5 NW 19.7 0.0 0.9
14:23 6.6 2.7 76 1023.8 16.8 NW 19.7 0.0 0.9
14:24 6.5 2.6 76 1023.9 13.0 NW 19.7 0.0 0.9
14:25 6.5 2.6 76 1023.9 13.6 W 19.7 0.0 0.9
14:26 6.5 2.6 76 1023.8 13.6 NW 19.7 0.0 0.9
14:27 6.4 2.5 76 1023.6 18.3 W 19.7 0.0 0.9
14:28 6.4 2.5 76 1023.8 15.9 N 19.7 0.0 0.9
14:29 6.4 2.5 76 1023.9 13.6 W 19.7 0.0 0.9
14:30 6.3 2.4 76 1023.8 17.4 WNW 18.3 0.0 0.9
14:31 6.3 2.4 76 1024.0 15.9 WNW 18.3 0.0 0.9
14:32 6.3 2.4 76 1023.9 19.7 NW 19.7 0.0 0.9
14:33 6.3 2.4 76 1023.9 19.0 NW 19.7 0.0 0.9
14:34 6.2 2.3 76 1023.8 17.4 NW 19.7 0.0 0.9
14:43 6.3 2.4 76 1024.0 20.6 W 20.6 0.0 0.9
14:44 6.3 2.4 76 1023.9 15.9 NW 20.6 0.0 0.9
14:45 6.3 2.4 76 1023.9 14.5 NW 20.6 0.0 0.9
14:46 6.3 2.4 76 1023.8 12.1 W 20.6 0.0 0.9
14:47 6.2 2.3 76 1023.8 19.0 W 20.6 0.0 0.9
14:48 6.2 2.3 76 1023.9 15.2 NW 20.6 0.0 0.9
14:49 6.2 2.3 76 1023.9 13.6 W 20.6 0.0 0.9
14:50 6.2 2.3 76 1023.8 11.4 W 20.6 0.0 0.9
14:51 6.1 2.2 76 1023.8 11.4 W 20.6 0.0 0.9
14:52 6.1 2.2 76 1023.8 17.4 NW 20.6 0.0 0.9
14:53 6.1 2.2 76 1023.8 17.4 NW 20.6 0.0 0.9
14:55 6.0 2.1 76 1023.7 13.6 W 19.0 0.0 0.9
14:57 5.9 2.0 76 1023.6 17.4 SW 19.0 0.0 0.9
15:00 5.8 1.9 76 1023.6 19.7 NW 22.8 0.0 0.9
15:01 5.8 1.9 76 1023.7 19.7 NW 22.8 0.0 0.9
15:02 5.8 1.9 76 1023.8 13.6 NW 22.8 0.0 0.9
15:03 5.8 1.9 76 1023.7 15.2 W 22.8 0.0 0.9
15:04 5.7 1.8 76 1023.6 19.7 NE 22.8 0.0 0.9
15:05 5.7 1.8 76 1023.7 14.5 SW 22.8 0.0 0.9
15:06 5.7 1.8 76 1023.8 14.5 NW 22.8 0.0 0.9
15:08 5.7 1.8 76 1023.8 18.3 W 22.8 0.0 0.9
15:09 5.7 1.8 76 1023.6 18.3 W 19.7 0.0 0.9
15:11 5.7 1.8 76 1023.7 19.0 W 19.7 0.0 0.9
15:12 5.6 1.7 76 1023.7 10.7 NW 19.7 0.0 0.9
15:14 5.6 1.7 76 1023.7 17.4 NW 19.7 0.0 0.9
15:15 5.6 1.7 76 1023.8 16.8 W 19.7 0.0 0.9
15:16 5.6 1.7 76 1023.7 14.5 SW 19.0 0.0 0.9
15:17 5.6 1.7 76 1023.7 13.6 W 19.0 0.0 0.9
15:18 5.6 1.7 76 1023.8 17.4 SW 19.0 0.0 0.9
15:19 5.6 1.7 76 1023.8 13.0 W 19.0 0.0 0.9
15:20 5.6 1.7 76 1023.8 14.5 W 19.0 0.0 0.9
15:21 5.6 1.7 76 1023.7 15.9 NW 19.0 0.0 0.9
15:22 5.6 1.7 76 1023.8 15.9 W 17.4 0.0 0.9
15:23 5.6 1.7 76 1023.8 19.0 NW 19.7 0.0 0.9
15:24 5.6 1.7 76 1023.6 19.0 W 19.7 0.0 0.9
15:25 5.6 1.7 76 1023.7 19.0 NW 19.7 0.0 0.9
15:26 5.6 1.7 76 1023.8 21.3 NW 21.3 0.0 0.9
15:27 5.6 1.7 76 1023.8 16.8 W 21.3 0.0 0.9
15:28 5.6 1.7 76 1023.8 17.4 NW 21.3 0.0 0.9
15:55 5.1 1.2 76 1023.8 19.0 W 22.8 0.0 0.9
15:56 5.1 1.2 76 1023.8 15.9 NW 19.0 0.0 0.9
15:57 5.1 1.2 76 1024.0 13.0 W 19.0 0.0 0.9
15:58 5.1 1.2 76 1023.9 11.4 NW 19.0 0.0 0.9
15:59 5.1 1.2 76 1023.8 13.6 W 19.0 0.0 0.9
16:00 5.1 1.2 76 1024.0 12.1 NW 19.0 0.0 0.9
16:01 5.1 1.2 76 1023.9 12.1 NW 19.0 0.0 0.9
16:02 5.1 1.2 76 1024.1 15.2 NW 19.0 0.0 0.9
16:03 5.1 1.2 76 1024.1 14.5 W 19.0 0.0 0.9
16:04 5.1 1.2 76 1024.0 13.6 W 19.0 0.0 0.9
16:05 5.1 1.2 76 1023.9 12.1 W 18.3 0.0 0.9
16:07 5.1 1.2 76 1024.0 16.8 W 18.3 0.0 0.9
16:08 5.1 1.2 76 1024.0 12.1 W 20.6 0.0 0.9
16:10 5.1 1.2 76 1023.9 13.6 NW 20.6 0.0 0.9
16:11 5.1 1.2 76 1024.0 16.8 W 22.8 0.0 0.9
16:13 5.1 1.2 76 1023.7 14.5 W 22.8 0.0 0.9
16:14 5.1 1.2 76 1024.0 17.4 W 22.8 0.0 0.9
16:15 5.1 1.2 76 1024.0 9.2 W 22.8 0.0 0.9
16:16 5.0 1.1 76 1024.0 17.4 NW 22.8 0.0 0.9
16:17 5.0 1.1 76 1024.0 14.5 NW 22.8 0.0 0.9
16:18 5.0 1.1 76 1023.9 15.2 NW 22.8 0.0 0.9
16:19 5.0 1.1 76 1023.8 13.0 NW 22.8 0.0 0.9
16:20 5.0 1.1 76 1023.9 16.8 W 22.8 0.0 0.9
16:24 5.0 1.1 76 1023.8 11.4 W 17.4 0.0 0.9
16:26 4.9 1.0 76 1024.0 7.6 SW 17.4 0.0 0.9
16:27 4.9 1.0 76 1024.1 12.1 WNW 17.4 0.0 0.9
16:28 4.9 1.0 76 1024.0 13.6 SW 17.4 0.0 0.9
16:44 4.8 0.9 76 1024.2 15.2 NW 18.3 0.0 0.9
16:45 4.9 1.0 76 1024.3 15.9 NW 19.7 0.0 0.9
16:46 4.9 1.0 76 1024.2 15.9 NW 19.7 0.0 0.9
16:48 4.9 1.0 76 1024.5 9.2 W 19.7 0.0 0.9
16:59 5.0 1.1 76 1024.3 15.9 W 19.7 0.8 1.0
17:08 5.0 1.1 76 1024.2 19.0 NW 19.7 0.0 1.0
17:11 5.0 1.1 76 1024.1 20.6 W 20.6 0.0 1.0
17:13 4.9 1.0 76 1024.1 13.6 W 20.6 0.0 1.0
17:15 4.9 1.0 76 1024.2 13.0 W 20.6 0.0 1.0
17:18 4.9 1.0 76 1024.2 9.8 W 20.6 0.0 1.0
17:20 4.9 1.0 76 1024.2 19.7 SW 20.6 0.0 1.0
17:22 4.8 0.9 76 1024.2 16.8 W 19.7 0.0 1.0
17:24 4.9 1.0 76 1024.1 13.6 W 19.7 0.0 1.0
17:33 5.0 1.1 76 1024.1 9.2 SW 18.3 0.0 1.0
17:35 4.9 1.0 76 1024.2 13.0 W 18.3 0.0 1.0
17:37 5.0 1.1 76 1024.2 15.2 W 18.3 0.0 1.0
17:39 5.0 1.1 76 1024.2 15.2 W 18.3 0.0 1.0
17:40 5.0 1.1 76 1024.3 10.7 W 16.8 0.0 1.0
17:42 5.0 1.1 76 1024.3 12.1 W 16.8 0.0 1.0
17:43 5.0 1.1 76 1024.2 13.6 W 15.9 0.0 1.0
17:46 4.9 1.0 76 1024.2 10.7 NW 15.9 0.0 1.0
17:49 4.9 1.0 76 1024.3 13.0 NW 15.2 0.0 1.0
17:50 4.9 1.0 76 1024.3 9.8 W 14.5 0.0 1.0
18:07 5.0 1.1 76 1024.3 13.6 W 19.0 0.0 1.0
18:08 5.0 1.1 76 1024.3 15.2 W 19.0 0.0 1.0
18:10 5.1 1.2 76 1024.2 12.1 W 15.9 0.0 1.0
18:12 5.1 1.2 76 1024.4 15.9 W 15.9 0.0 1.0
18:13 5.1 1.2 76 1024.3 15.9 W 15.9 0.0 1.0
18:14 5.1 1.2 76 1024.2 13.0 NW 15.9 0.0 1.0
18:16 5.1 1.2 76 1024.3 15.9 W 17.4 0.0 1.0
18:20 5.1 1.2 76 1024.3 15.2 NW 17.4 0.0 1.0
18:22 5.2 1.3 76 1024.4 7.6 W 17.4 0.0 1.0
18:23 5.2 1.3 76 1024.5 8.3 W 17.4 0.0 1.0
18:24 5.2 1.3 76 1024.4 11.4 W 17.4 0.0 1.0
18:25 5.2 1.3 76 1024.3 13.0 W 15.9 0.0 1.0
18:27 5.2 1.3 76 1024.5 7.6 NW 15.9 0.0 1.0
18:28 5.2 1.3 76 1024.4 7.6 W 15.2 0.0 1.0
18:29 5.2 1.3 76 1024.4 9.8 W 15.2 0.0 1.0
18:30 5.2 1.3 76 1024.4 9.8 W 15.2 0.0 1.0
18:31 5.2 1.3 76 1024.4 13.0 W 13.0 0.0 1.0
18:32 5.2 1.3 76 1024.4 9.2 W 13.0 0.0 1.0
18:33 5.2 1.3 76 1024.5 10.7 NW 13.0 0.0 1.0
18:34 5.2 1.3 76 1024.5 9.8 W 13.0 0.0 1.0
18:35 5.2 1.3 76 1024.3 11.4 NW 13.0 0.0 1.0
18:36 5.2 1.3 76 1024.3 12.1 NW 13.0 0.0 1.0
18:38 5.2 1.3 76 1024.4 6.0 SW 13.0 0.0 1.0
18:39 5.2 1.3 76 1024.3 7.6 NW 13.0 0.0 1.0
18:40 5.2 1.3 76 1024.5 6.9 W 13.0 0.0 1.0
18:41 5.2 1.3 76 1024.4 6.9 W 13.0 0.0 1.0
18:42 5.2 1.3 76 1024.3 9.2 W 13.0 0.0 1.0
18:45 5.1 1.2 76 1024.3 9.2 W 13.0 0.0 1.0
18:48 5.1 1.2 76 1024.4 11.4 NW 13.0 0.0 1.0
18:53 5.1 1.2 76 1024.4 10.7 W 15.2 0.0 1.0
18:54 5.1 1.2 76 1024.5 14.5 N 15.2 0.0 1.0
18:56 5.1 1.2 76 1024.5 12.1 W 15.2 0.0 1.0
18:57 5.1 1.2 76 1024.5 9.8 W 15.2 0.0 1.0
19:00 5.1 1.2 76 1024.4 10.7 W 14.5 0.0 1.0
19:01 5.1 1.2 76 1024.3 14.5 NW 14.5 0.0 1.0
19:04 5.1 1.2 76 1024.4 14.5 NW 14.5 0.0 1.0
19:05 5.1 1.2 76 1024.5 14.5 NW 14.5 0.0 1.0
19:12 5.2 1.3 76 1024.2 18.3 W 18.3 0.0 1.0
19:13 5.2 1.3 76 1024.3 13.6 W 18.3 0.0 1.0
19:15 5.2 1.3 76 1024.3 10.7 W 18.3 0.0 1.0
19:16 5.2 1.3 76 1024.4 13.6 W 18.3 0.0 1.0
19:17 5.2 1.3 76 1024.4 12.1 W 18.3 0.0 1.0
19:18 5.3 1.4 76 1024.6 14.5 NW 18.3 0.0 1.0
19:19 5.3 1.4 76 1024.5 10.7 W 18.3 0.0 1.0
19:20 5.3 1.4 76 1024.3 9.8 NW 18.3 0.0 1.0
19:21 5.2 1.3 76 1024.4 9.8 W 18.3 0.0 1.0
19:24 5.2 1.3 76 1024.3 11.4 W 15.9 0.0 1.0
19:25 5.3 1.4 76 1024.4 9.2 W 15.9 0.0 1.0
19:27 5.2 1.3 76 1024.5 7.6 W 15.9 0.0 1.0
19:29 5.2 1.3 76 1024.6 8.3 NW 15.9 0.0 1.0
19:30 5.2 1.3 76 1024.4 10.7 NW 15.9 0.0 1.0
19:31 5.2 1.3 76 1024.5 11.4 NW 15.9 0.0 1.0
19:32 5.2 1.3 76 1024.5 13.0 W 15.9 0.0 1.0
19:33 5.2 1.3 76 1024.4 9.8 NW 14.5 0.0 1.0
19:34 5.2 1.3 76 1024.4 9.2 W 14.5 0.0 1.0
19:35 5.2 1.3 76 1024.5 7.6 W 14.5 0.0 1.0
19:37 5.2 1.3 76 1024.5 8.3 NW 14.5 0.0 1.0
19:38 5.2 1.3 76 1024.4 9.8 NW 14.5 0.0 1.0
19:39 5.2 1.3 76 1024.6 9.8 W 14.5 0.0 1.0
19:40 5.2 1.3 76 1024.4 10.7 NW 14.5 0.0 1.0
19:42 5.2 1.3 76 1024.5 13.0 W 14.5 0.0 1.0
19:43 5.2 1.3 76 1024.5 6.9 W 13.0 0.0 1.0
20:25 5.1 1.2 76 1024.3 7.6 SW 12.1 0.0 1.0
20:27 5.2 1.3 76 1024.3 16.8 W 16.8 0.0 1.0
20:28 5.2 1.3 76 1024.2 12.1 W 16.8 0.0 1.0
20:29 5.2 1.3 76 1024.3 9.2 W 16.8 0.0 1.0
10:31 5.4 1.7 77 1023.2 20.6 W 23.5 0.0 0.5
10:32 5.4 1.7 77 1023.5 19.7 NW 23.5 0.0 0.5
10:33 5.4 1.7 77 1023.4 19.0 NW 23.5 0.0 0.5
10:34 5.5 1.8 77 1023.5 18.3 NW 22.1 0.0 0.5
10:35 5.4 1.7 77 1023.4 18.3 NW 22.1 0.0 0.5
10:39 5.4 1.7 77 1023.5 15.2 W 22.1 0.0 0.5
10:40 5.4 1.7 77 1023.6 13.0 W 22.1 0.0 0.5
10:41 5.4 1.7 77 1023.6 22.1 NW 22.1 0.0 0.5
10:42 5.4 1.7 77 1023.5 13.6 W 22.1 0.0 0.5
10:55 5.5 1.8 77 1023.8 19.7 W 19.7 0.0 0.5
13:36 6.5 2.8 77 1023.8 19.0 NW 19.0 0.0 0.9
13:37 6.5 2.8 77 1023.7 13.6 NW 19.0 0.0 0.9
13:38 6.6 2.9 77 1023.7 15.9 W 19.0 0.0 0.9
13:39 6.6 2.9 77 1023.9 13.6 W 19.0 0.0 0.9
13:40 6.7 3.0 77 1023.9 20.6 W 20.6 0.0 0.9
13:41 6.7 3.0 77 1023.9 12.1 N 20.6 0.0 0.9
13:42 6.7 3.0 77 1023.8 9.8 N 20.6 0.0 0.9
14:12 6.6 2.9 77 1023.9 19.0 W 21.3 0.0 0.9
14:35 6.2 2.5 77 1023.7 15.9 SW 19.7 0.0 0.9
14:36 6.2 2.5 77 1023.9 17.4 NW 19.7 0.0 0.9
14:37 6.2 2.5 77 1023.8 10.7 NW 19.7 0.0 0.9
14:38 6.2 2.5 77 1023.9 15.9 NW 19.7 0.0 0.9
14:39 6.3 2.6 77 1024.0 19.0 W 19.7 0.0 0.9
14:40 6.3 2.6 77 1023.8 13.0 NW 19.7 0.0 0.9
14:41 6.3 2.6 77 1023.9 13.0 NW 19.7 0.0 0.9
14:42 6.3 2.6 77 1023.8 19.7 W 19.7 0.0 0.9
16:50 5.0 1.3 77 1024.3 13.6 NW 19.7 0.0 0.9
16:53 5.0 1.3 77 1024.2 17.4 NW 19.7 0.0 0.9
16:54 5.0 1.3 77 1024.2 19.7 NW 19.7 0.0 0.9
16:55 5.0 1.3 77 1024.3 18.3 NW 19.7 0.0 0.9
16:56 5.0 1.3 77 1024.3 14.5 W 19.7 0.8 1.0
16:58 5.0 1.3 77 1024.2 14.5 W 19.7 0.8 1.0
17:00 5.0 1.3 77 1024.2 14.5 W 19.7 0.8 1.0
17:01 5.0 1.3 77 1024.2 14.5 N 19.7 0.0 1.0
17:02 5.0 1.3 77 1024.2 14.5 N 19.7 0.0 1.0
17:03 5.0 1.3 77 1024.4 14.5 N 19.7 0.0 1.0
17:04 5.0 1.3 77 1024.3 14.5 N 19.7 0.0 1.0
17:05 5.0 1.3 77 1024.2 14.5 N 18.3 0.0 1.0
17:06 5.0 1.3 77 1024.2 15.9 W 15.9 0.0 1.0
17:27 4.9 1.2 77 1024.2 18.3 N 19.7 0.0 1.0
17:30 4.9 1.2 77 1024.2 18.3 W 19.7 0.0 1.0
17:51 4.9 1.2 77 1024.3 10.7 NW 14.5 0.0 1.0
17:52 4.9 1.2 77 1024.4 13.0 NW 14.5 0.0 1.0
17:53 4.9 1.2 77 1024.2 11.4 W 14.5 0.0 1.0
17:54 4.9 1.2 77 1024.3 12.1 N 14.5 0.0 1.0
17:55 4.9 1.2 77 1024.3 15.2 W 15.2 0.0 1.0
17:56 4.9 1.2 77 1024.2 14.5 NW 15.2 0.0 1.0
17:57 4.9 1.2 77 1024.2 15.2 W 15.2 0.0 1.0
17:59 4.9 1.2 77 1024.4 13.6 W 19.0 0.0 1.0
18:00 4.9 1.2 77 1024.2 13.0 W 19.0 0.0 1.0
18:01 4.9 1.2 77 1024.2 12.1 W 19.0 0.0 1.0
18:02 4.9 1.2 77 1024.3 12.1 W 19.0 0.0 1.0
18:03 4.9 1.2 77 1024.2 12.1 W 19.0 0.0 1.0
18:04 4.9 1.2 77 1024.2 12.1 W 19.0 0.0 1.0
18:05 4.9 1.2 77 1024.2 12.1 W 19.0 0.0 1.0
20:31 5.2 1.5 77 1024.1 12.1 W 16.8 0.0 1.0
20:33 5.2 1.5 77 1024.2 10.7 NE 16.8 0.0 1.0
20:47 5.2 1.5 77 1024.2 21.3 SW 21.3 0.0 1.0
20:49 5.2 1.5 77 1024.4 20.6 NW 21.3 0.0 1.0
20:50 5.2 1.5 77 1024.1 15.9 W 21.3 0.0 1.0
20:51 5.2 1.5 77 1024.3 9.8 NW 21.3 0.0 1.0
20:52 5.1 1.4 77 1024.1 13.6 W 21.3 0.0 1.0
20:53 5.1 1.4 77 1024.1 10.7 NW 21.3 0.0 1.0
20:54 5.1 1.4 77 1024.1 12.1 NW 21.3 0.0 1.0
20:55 5.1 1.4 77 1024.2 13.0 NW 21.3 0.0 1.0
20:57 5.0 1.3 77 1024.2 9.2 WNW 21.3 0.0 1.0
09:28 5.1 1.6 78 1023.1 18.3 NW 23.5 0.0 0.4
09:29 5.1 1.6 78 1023.0 17.4 NW 23.5 0.0 0.4
09:30 5.1 1.6 78 1023.1 19.0 W 23.5 0.0 0.4
09:31 5.2 1.7 78 1023.2 15.9 W 21.3 0.0 0.4
09:34 5.3 1.8 78 1023.1 19.7 W 20.6 0.0 0.4
09:41 5.4 1.9 78 1023.4 15.9 W 22.8 0.0 0.4
09:42 5.4 1.9 78 1023.3 16.8 W 22.8 0.0 0.4
09:43 5.4 1.9 78 1023.4 14.5 W 22.8 0.0 0.4
09:44 5.4 1.9 78 1023.3 15.2 N 22.8 0.0 0.4
09:45 5.4 1.9 78 1023.3 21.3 NW 22.8 0.0 0.4
09:46 5.3 1.8 78 1023.5 15.2 NW 22.8 0.0 0.4
09:47 5.3 1.8 78 1023.5 17.4 W 22.8 0.0 0.4
09:48 5.3 1.8 78 1023.5 15.2 W 22.8 0.0 0.4
09:49 5.2 1.7 78 1023.8 21.3 SW 22.8 0.0 0.4
09:50 5.2 1.7 78 1023.5 20.6 SW 22.8 0.0 0.4
09:51 5.1 1.6 78 1023.6 22.1 W 22.1 0.0 0.4
09:52 5.1 1.6 78 1023.8 21.3 NW 22.1 0.0 0.4
10:29 5.2 1.7 78 1023.4 18.3 W 23.5 0.0 0.5
10:30 5.3 1.8 78 1023.5 16.8 W 23.5 0.0 0.5
10:43 5.4 1.9 78 1023.5 15.2 W 22.1 0.0 0.5
10:44 5.4 1.9 78 1023.7 15.9 W 22.1 0.0 0.5
10:53 5.6 2.1 78 1023.8 11.4 N 18.3 0.0 0.5
10:54 5.5 2.0 78 1023.8 17.4 N 18.3 0.0 0.5
13:31 5.9 2.4 78 1023.7 13.6 NW 22.1 0.0 0.9
13:32 6.1 2.6 78 1023.8 17.4 W 22.1 0.0 0.9
13:35 6.3 2.7 78 1023.8 15.9 W 17.4 0.0 0.9
13:43 6.6 3.0 78 1024.0 8.3 NW 20.6 0.8 0.9
13:44 6.5 2.9 78 1024.0 9.2 NW 20.6 0.8 0.9
13:45 6.5 2.9 78 1023.8 6.9 NW 20.6 0.8 0.9
13:46 6.4 2.8 78 1023.9 2.2 NW 20.6 0.8 0.9
20:34 5.2 1.7 78 1024.2 13.0 W 16.8 0.0 1.0
20:35 5.2 1.7 78 1024.2 8.3 W 16.8 0.0 1.0
20:36 5.2 1.7 78 1024.1 11.4 NW 16.8 0.0 1.0
20:38 5.2 1.7 78 1024.3 12.1 NW 13.0 0.0 1.0
20:39 5.2 1.7 78 1024.3 11.4 NW 13.0 0.0 1.0
20:40 5.2 1.7 78 1024.4 12.1 W 13.0 0.0 1.0
20:41 5.2 1.7 78 1024.1 15.9 NW 15.9 0.0 1.0
20:42 5.3 1.8 78 1024.2 12.1 NW 15.9 0.0 1.0
20:43 5.2 1.7 78 1024.2 12.1 W 15.9 0.0 1.0
20:44 5.2 1.7 78 1024.3 15.2 NW 15.9 0.0 1.0
20:45 5.2 1.7 78 1024.5 17.4 E 17.4 0.0 1.0
20:46 5.2 1.7 78 1024.4 17.4 W 17.4 0.0 1.0
20:58 5.0 1.5 78 1024.2 9.8 NW 21.3 0.0 1.0
20:59 5.0 1.5 78 1024.1 9.8 W 19.7 0.0 1.0
21:00 5.0 1.5 78 1024.2 11.4 W 18.3 0.0 1.0
21:01 5.0 1.5 78 1024.2 6.9 W 18.3 0.0 1.0
21:02 5.0 1.5 78 1024.2 6.9 W 14.5 0.0 1.0
21:03 5.0 1.5 78 1024.1 6.9 W 14.5 0.0 1.0
21:04 5.0 1.5 78 1024.1 6.9 W 14.5 0.0 1.0
21:05 5.0 1.5 78 1024.1 6.9 W 13.0 0.0 1.0
03:53 5.2 1.9 79 1020.1 17.4 SW 26.6 0.0 0.1
03:54 5.1 1.8 79 1019.9 15.2 NW 26.6 0.0 0.1
03:55 5.1 1.8 79 1020.1 18.3 W 26.6 0.0 0.1
03:56 5.1 1.8 79 1020.0 9.2 NW 23.5 0.0 0.1
03:57 5.1 1.8 79 1020.0 16.8 S 23.5 0.0 0.1
03:58 5.1 1.8 79 1020.0 14.5 SW 23.5 0.0 0.1
03:59 5.2 1.9 79 1020.0 15.2 SW 23.5 0.0 0.1
04:01 5.2 1.9 79 1020.2 15.2 SW 18.3 0.0 0.1
04:02 5.2 1.9 79 1020.1 15.2 SW 18.3 0.0 0.1
04:04 5.2 1.9 79 1020.4 15.2 SW 18.3 0.0 0.1
04:05 5.2 1.9 79 1020.3 15.2 SW 18.3 0.0 0.1
04:06 5.2 1.9 79 1020.4 25.9 W 25.9 0.0 0.1
09:21 5.0 1.7 79 1022.9 23.5 NW 23.5 0.0 0.4
09:22 5.0 1.7 79 1023.2 21.3 W 23.5 0.0 0.4
09:23 5.0 1.7 79 1023.1 21.3 NW 23.5 0.0 0.4
09:24 5.0 1.7 79 1023.2 19.7 NW 23.5 0.0 0.4
09:25 5.1 1.8 79 1023.2 20.6 NW 23.5 0.0 0.4
09:26 5.1 1.8 79 1023.0 13.6 NW 23.5 0.0 0.4
09:27 5.1 1.8 79 1023.0 19.0 NE 23.5 0.0 0.4
09:32 5.2 1.9 79 1023.2 20.6 N 21.3 0.0 0.4
09:33 5.2 1.9 79 1023.1 18.3 W 20.6 0.0 0.4
09:35 5.3 2.0 79 1023.1 17.4 W 20.6 0.0 0.4
09:36 5.3 2.0 79 1023.3 16.8 W 20.6 0.0 0.4
09:37 5.3 2.0 79 1023.3 21.3 W 21.3 0.0 0.4
09:38 5.4 2.1 79 1023.2 19.0 NW 21.3 0.0 0.4
09:39 5.4 2.1 79 1023.0 20.6 NW 21.3 0.0 0.4
09:53 5.0 1.7 79 1023.7 18.3 NW 22.1 0.0 0.4
09:54 4.9 1.6 79 1023.7 19.0 W 22.1 0.0 0.4
09:55 4.9 1.6 79 1023.9 21.3 W 22.1 0.0 0.4
10:26 5.0 1.7 79 1023.4 20.6 W 23.5 0.0 0.5
10:27 5.1 1.8 79 1023.4 19.7 NW 23.5 0.0 0.5
10:28 5.2 1.9 79 1023.4 19.0 NW 23.5 0.0 0.5
10:45 5.4 2.1 79 1023.5 18.3 NW 22.1 0.0 0.5
10:46 5.4 2.1 79 1023.6 15.9 SW 22.1 0.0 0.5
10:51 5.5 2.2 79 1023.6 18.3 NW 22.1 0.0 0.5
10:52 5.5 2.2 79 1023.7 13.6 W 18.3 0.0 0.5
12:06 5.2 1.9 79 1023.7 8.3 NW 14.5 0.0 0.6
12:07 5.2 1.9 79 1023.7 7.6 NW 14.5 1.5 0.7
12:09 5.2 1.9 79 1023.7 12.1 W 14.5 2.3 0.7
13:23 6.1 2.7 79 1024.0 10.7 NW 22.1 0.0 0.9
13:24 6.0 2.6 79 1024.0 14.5 NW 22.1 0.0 0.9
13:25 6.0 2.6 79 1023.8 12.1 NW 22.1 0.0 0.9
13:26 5.9 2.5 79 1023.8 14.5 NW 22.1 0.0 0.9
13:27 5.8 2.4 79 1023.7 15.9 W 22.1 0.0 0.9
13:28 5.8 2.4 79 1023.9 15.2 W 22.1 0.0 0.9
13:29 5.8 2.4 79 1023.7 14.5 W 22.1 0.0 0.9
13:33 6.1 2.7 79 1023.8 12.1 W 17.4 0.0 0.9
13:34 6.2 2.8 79 1023.8 17.4 NW 17.4 0.0 0.9
13:47 6.3 2.9 79 1024.0 11.4 NW 20.6 0.8 0.9
14:10 6.5 3.1 79 1023.9 15.2 NW 21.3 0.0 0.9
21:06 4.9 1.6 79 1024.3 8.3 NW 11.4 0.0 1.0
21:08 4.9 1.6 79 1024.2 7.6 SW 11.4 0.0 1.0
03:49 5.0 1.8 80 1020.0 20.6 NW 26.6 0.0 0.1
03:50 5.0 1.8 80 1019.9 23.5 SW 26.6 0.0 0.1
03:51 5.1 1.9 80 1019.9 18.3 SW 26.6 0.0 0.1
04:08 5.2 2.0 80 1020.5 10.7 NW 25.9 0.0 0.1
04:09 5.2 2.0 80 1020.3 13.6 NW 25.9 0.0 0.1
04:10 5.1 1.9 80 1020.3 12.1 W 25.9 0.0 0.1
08:13 5.0 1.8 80 1022.2 18.3 NW 22.1 0.8 0.4
08:14 5.0 1.8 80 1022.2 17.4 NW 22.1 0.8 0.4
08:15 5.0 1.8 80 1022.2 14.5 N 23.5 0.8 0.4
08:16 5.0 1.8 80 1022.2 14.5 NW 23.5 0.8 0.4
08:17 5.0 1.8 80 1022.2 17.4 SW 23.5 0.0 0.4
08:18 5.0 1.8 80 1022.2 16.8 NW 23.5 0.0 0.4
08:19 5.0 1.8 80 1022.2 13.6 W 23.5 0.0 0.4
08:21 5.0 1.8 80 1022.3 23.5 NW 23.5 0.0 0.4
08:22 4.9 1.7 80 1022.1 17.4 W 23.5 0.0 0.4
08:23 4.9 1.7 80 1022.1 16.8 NW 23.5 0.0 0.4
08:24 4.9 1.7 80 1022.2 14.5 W 23.5 0.0 0.4
08:25 4.9 1.7 80 1022.2 12.1 NW 23.5 0.0 0.4
08:26 4.9 1.7 80 1022.3 14.5 W 23.5 0.0 0.4
08:27 4.8 1.6 80 1022.2 18.3 W 23.5 0.0 0.4
08:28 4.8 1.6 80 1022.2 12.1 SW 23.5 0.0 0.4
08:29 4.8 1.6 80 1022.2 14.5 W 23.5 0.0 0.4
08:31 4.8 1.6 80 1022.3 14.5 SW 18.3 0.0 0.4
08:32 4.8 1.6 80 1022.3 14.5 NW 18.3 0.0 0.4
08:33 4.8 1.6 80 1022.2 16.8 NE 18.3 0.0 0.4
08:34 4.8 1.6 80 1022.4 15.2 NW 18.3 0.0 0.4
08:35 4.8 1.6 80 1022.5 10.7 S 18.3 0.0 0.4
08:36 4.8 1.6 80 1022.6 21.3 WNW 21.3 0.0 0.4
09:13 4.9 1.7 80 1022.8 15.9 W 17.4 0.0 0.4
09:14 4.8 1.6 80 1022.8 15.2 N 17.4 0.0 0.4
09:15 4.9 1.7 80 1023.0 13.6 NW 17.4 0.0 0.4
09:16 4.9 1.7 80 1022.8 17.4 NW 17.4 0.0 0.4
09:17 4.9 1.7 80 1022.9 16.8 W 17.4 0.0 0.4
09:18 5.0 1.8 80 1022.9 16.8 NW 17.4 0.0 0.4
09:19 4.9 1.7 80 1023.0 13.0 W 17.4 0.0 0.4
09:20 5.0 1.8 80 1022.8 19.0 W 19.0 0.0 0.4
09:56 4.9 1.7 80 1023.9 17.4 W 22.1 0.0 0.4
09:57 4.7 1.5 80 1023.9 13.0 W 22.1 0.8 0.5
10:21 4.8 1.6 80 1023.4 16.8 W 21.3 0.0 0.5
10:25 5.0 1.8 80 1023.4 19.0 NW 23.5 0.0 0.5
10:47 5.4 2.2 80 1023.6 12.1 W 22.1 0.0 0.5
10:48 5.5 2.3 80 1023.6 13.6 W 22.1 0.0 0.5
10:49 5.5 2.3 80 1023.7 13.6 NW 22.1 0.0 0.5
10:50 5.5 2.3 80 1023.7 17.4 NW 22.1 0.0 0.5
12:10 5.1 1.9 80 1023.6 18.3 W 18.3 2.3 0.7
12:12 5.0 1.8 80 1023.6 15.2 W 18.3 0.8 0.7
12:13 4.9 1.7 80 1023.6 15.2 W 18.3 0.0 0.7
12:14 4.9 1.7 80 1023.6 9.2 W 18.3 0.0 0.7
12:15 4.8 1.6 80 1023.8 10.7 NW 18.3 0.0 0.8
12:16 4.8 1.6 80 1023.7 11.4 W 18.3 0.8 0.8
13:19 6.1 2.9 80 1024.0 15.2 W 16.8 0.0 0.9
13:20 6.2 3.0 80 1023.9 16.8 NW 16.8 0.0 0.9
13:21 6.2 3.0 80 1023.7 22.1 W 22.1 0.0 0.9
13:22 6.1 2.9 80 1023.9 22.1 W 22.1 0.0 0.9
21:10 4.9 1.7 80 1024.2 9.2 W 14.5 0.0 1.0
21:11 4.9 1.7 80 1024.1 6.9 S 14.5 0.0 1.0
21:12 4.9 1.7 80 1024.2 6.9 NW 14.5 0.0 1.0
21:39 5.2 2.0 80 1024.1 6.0 W 15.2 0.0 1.1
21:40 5.2 2.0 80 1024.1 6.9 W 15.2 0.0 1.1
21:42 5.2 2.0 80 1024.0 7.6 W 13.0 0.0 1.1
21:43 5.1 1.9 80 1024.1 9.8 W 13.0 0.0 1.1
21:44 5.2 2.0 80 1024.2 10.7 W 13.0 0.0 1.1
21:45 5.1 1.9 80 1024.1 6.9 NW 13.0 0.0 1.1
21:46 5.1 1.9 80 1024.1 7.6 NW 10.7 0.0 1.1
21:47 5.1 1.9 80 1024.2 8.3 NW 10.7 0.0 1.1
21:48 5.1 1.9 80 1024.1 8.3 W 10.7 0.0 1.1
21:49 5.1 1.9 80 1024.2 7.6 W 10.7 0.0 1.1
21:50 5.1 1.9 80 1024.1 8.3 W 10.7 0.0 1.1
21:52 5.1 1.9 80 1024.1 6.9 W 10.7 0.0 1.1
21:53 5.1 1.9 80 1024.2 5.4 W 10.7 0.0 1.1
21:54 5.1 1.9 80 1024.1 10.7 NW 10.7 0.0 1.1
21:55 5.1 1.9 80 1024.0 11.4 NW 11.4 0.0 1.1
21:57 5.1 1.9 80 1024.1 6.9 W 11.4 0.0 1.1
01:06 5.8 2.8 81 1019.5 20.6 NW 20.6 0.0 0.0
01:07 5.8 2.8 81 1019.6 18.3 W 20.6 0.0 0.0
01:08 5.8 2.8 81 1019.7 12.1 NW 20.6 0.0 0.0
01:09 5.8 2.8 81 1019.7 14.5 NW 20.6 0.0 0.0
01:10 5.8 2.8 81 1019.6 18.3 N 20.6 0.0 0.0
01:12 5.8 2.8 81 1019.7 13.0 NW 20.6 0.0 0.0
01:13 5.8 2.8 81 1019.6 20.6 NW 20.6 0.0 0.0
01:15 5.8 2.8 81 1019.6 15.9 W 20.6 0.0 0.0
01:17 5.8 2.8 81 1019.6 12.1 SW 20.6 0.0 0.0
01:19 5.8 2.8 81 1019.6 14.5 W 20.6 0.0 0.0
01:20 5.9 2.9 81 1019.5 17.4 W 20.6 0.0 0.0
01:22 5.9 2.9 81 1019.6 16.8 W 20.6 0.0 0.0
01:24 5.9 2.9 81 1019.6 12.1 NW 17.4 0.0 0.0
01:26 5.9 2.9 81 1019.6 12.1 NW 17.4 0.0 0.0
03:47 4.9 1.9 81 1019.9 19.0 NW 26.6 0.0 0.1
03:48 4.9 1.9 81 1020.0 20.6 WNW 26.6 0.0 0.1
04:11 5.1 2.1 81 1020.2 14.5 NW 25.9 0.0 0.1
04:12 5.0 2.0 81 1020.3 12.1 SW 25.9 0.0 0.1
04:13 5.0 2.0 81 1020.3 9.8 W 25.9 0.0 0.1
04:14 4.9 1.9 81 1020.3 10.7 WNW 25.9 0.0 0.1
04:15 4.9 1.9 81 1020.4 9.2 NW 25.9 0.0 0.1
04:16 4.8 1.8 81 1020.3 19.7 NNW 20.6 0.0 0.1
07:38 4.7 1.7 81 1021.9 24.4 NW 24.4 0.0 0.4
07:39 4.7 1.7 81 1021.7 18.3 W 24.4 0.0 0.4
07:40 4.7 1.7 81 1021.8 17.4 W 24.4 0.0 0.4
07:41 4.7 1.7 81 1021.8 22.1 SW 24.4 0.0 0.4
07:42 4.8 1.8 81 1021.7 10.7 NW 24.4 0.0 0.4
07:43 4.8 1.8 81 1022.0 11.4 NW 24.4 0.0 0.4
07:44 4.8 1.8 81 1022.0 15.9 WNW 24.4 0.0 0.4
07:45 4.8 1.8 81 1021.8 13.6 W 24.4 0.0 0.4
07:46 4.8 1.8 81 1021.8 17.4 NW 24.4 0.0 0.4
07:47 4.8 1.8 81 1021.9 20.6 NW 24.4 0.0 0.4
07:48 4.8 1.8 81 1021.9 15.9 W 24.4 0.0 0.4
07:49 4.8 1.8 81 1021.9 12.1 W 22.1 0.0 0.4
07:50 4.8 1.8 81 1021.9 13.0 W 22.1 0.0 0.4
07:51 4.8 1.8 81 1021.8 13.6 W 20.6 0.0 0.4
07:52 4.8 1.8 81 1022.0 19.7 N 20.6 0.0 0.4
07:53 4.7 1.7 81 1021.8 16.8 NW 20.6 0.0 0.4
07:54 4.7 1.7 81 1022.0 15.9 N 20.6 0.0 0.4
07:55 4.7 1.7 81 1022.0 17.4 W 20.6 0.0 0.4
07:56 4.8 1.8 81 1022.0 13.6 NW 20.6 0.0 0.4
07:57 4.7 1.7 81 1021.9 12.1 W 20.6 0.0 0.4
07:58 4.8 1.8 81 1021.9 12.1 NW 19.7 0.0 0.4
07:59 4.8 1.8 81 1021.8 13.6 W 19.7 0.0 0.4
08:00 4.8 1.8 81 1022.1 13.6 NW 19.7 0.0 0.4
08:01 4.8 1.8 81 1021.9 13.0 NW 19.7 0.0 0.4
08:02 4.8 1.8 81 1022.0 17.4 W 17.4 0.0 0.4
08:03 4.8 1.8 81 1021.9 13.0 W 17.4 0.0 0.4
08:04 4.8 1.8 81 1022.1 13.6 NW 17.4 0.0 0.4
08:05 4.9 1.9 81 1022.0 14.5 NW 17.4 0.0 0.4
08:06 4.9 1.9 81 1021.9 16.8 SW 19.0 0.0 0.4
08:08 4.9 1.9 81 1022.1 14.5 NW 19.0 0.0 0.4
08:09 4.9 1.9 81 1021.9 13.0 W 19.0 0.0 0.4
08:10 4.9 1.9 81 1021.9 15.2 S 19.0 0.0 0.4
08:12 5.0 2.0 81 1022.1 22.1 N 22.1 0.8 0.4
08:37 4.8 1.8 81 1022.6 15.9 WNW 21.3 0.0 0.4
08:38 4.7 1.7 81 1022.6 6.9 NW 21.3 0.0 0.4
08:39 4.7 1.7 81 1022.5 12.1 N 21.3 0.0 0.4
08:40 4.7 1.7 81 1022.3 19.0 NW 21.3 0.0 0.4
08:41 4.7 1.7 81 1022.5 19.7 W 21.3 0.0 0.4
09:00 4.6 1.6 81 1022.9 14.5 WNW 19.7 0.0 0.4
09:01 4.6 1.6 81 1022.8 14.5 WNW 19.7 0.0 0.4
09:03 4.6 1.6 81 1022.8 15.9 NW 19.7 0.0 0.4
09:04 4.6 1.6 81 1022.9 15.2 NW 19.7 0.0 0.4
09:05 4.7 1.7 81 1022.9 13.6 W 19.7 0.0 0.4
09:06 4.7 1.7 81 1022.9 15.9 W 19.7 0.0 0.4
09:07 4.7 1.7 81 1022.9 14.5 W 19.7 0.0 0.4
09:09 4.7 1.7 81 1022.9 13.0 NW 19.7 0.0 0.4
09:10 4.7 1.7 81 1023.0 13.0 W 16.8 0.0 0.4
09:11 4.8 1.8 81 1023.0 15.2 NW 17.4 0.0 0.4
09:58 4.6 1.6 81 1023.9 17.4 NW 22.1 0.8 0.5
09:59 4.5 1.5 81 1023.7 16.8 W 22.1 0.8 0.5
10:00 4.4 1.4 81 1023.7 20.6 W 22.1 0.8 0.5
10:01 4.4 1.4 81 1023.7 20.6 W 21.3 0.8 0.5
10:19 4.5 1.5 81 1023.4 20.6 E 21.3 0.0 0.5
10:20 4.6 1.6 81 1023.3 13.6 W 21.3 0.0 0.5
10:22 4.9 1.9 81 1023.4 15.2 NW 21.3 0.0 0.5
10:23 4.9 1.9 81 1023.4 16.8 NW 21.3 0.0 0.5
10:24 4.9 1.9 81 1023.4 17.4 NW 21.3 0.0 0.5
12:17 4.7 1.7 81 1023.7 9.8 W 18.3 0.8 0.8
13:10 5.4 2.4 81 1023.8 14.5 W 20.6 0.0 0.9
13:12 5.6 2.6 81 1023.8 13.6 NW 20.6 0.0 0.9
13:13 5.7 2.7 81 1023.8 11.4 NW 20.6 0.0 0.9
13:14 5.7 2.7 81 1023.8 11.4 NW 20.6 0.0 0.9
13:15 5.9 2.9 81 1023.8 13.6 W 19.7 0.0 0.9
13:16 6.0 3.0 81 1023.9 14.5 W 19.7 0.0 0.9
13:17 6.0 3.0 81 1023.9 11.4 W 19.7 0.0 0.9
13:18 6.1 3.1 81 1023.9 9.8 W 16.8 0.0 0.9
13:49 6.2 3.2 81 1023.9 11.4 WSW 20.6 0.0 0.9
21:14 4.9 1.9 81 1024.2 9.8 W 14.5 0.0 1.0
21:15 4.9 1.9 81 1024.2 6.9 W 14.5 0.0 1.1
21:17 4.9 1.9 81 1024.1 7.6 W 14.5 1.5 1.1
21:18 4.9 1.9 81 1024.2 9.8 NW 14.5 1.5 1.1
21:33 5.0 2.0 81 1024.2 11.4 NW 15.2 0.0 1.1
21:34 5.1 2.1 81 1024.0 11.4 NW 15.2 0.0 1.1
21:35 5.1 2.1 81 1024.1 13.0 W 15.2 0.0 1.1
21:36 5.1 2.1 81 1024.1 9.2 W 15.2 0.0 1.1
21:37 5.1 2.1 81 1024.1 10.7 S 15.2 0.0 1.1
21:38 5.1 2.1 81 1024.0 9.8 W 15.2 0.0 1.1
21:56 5.1 2.1 81 1024.1 8.3 W 11.4 0.0 1.1
21:58 5.1 2.1 81 1024.1 8.3 W 11.4 0.0 1.1
21:59 5.1 2.1 81 1024.0 6.9 W 11.4 0.0 1.1
22:00 5.1 2.1 81 1024.1 7.6 NW 11.4 0.0 1.1
22:01 5.1 2.1 81 1023.9 7.6 NW 11.4 0.0 1.1
22:02 5.1 2.1 81 1024.0 7.6 NW 11.4 0.0 1.1
22:04 5.1 2.1 81 1023.9 7.6 NW 11.4 0.0 1.1
22:05 5.1 2.1 81 1023.9 7.6 NW 11.4 0.0 1.1
22:06 5.2 2.2 81 1023.9 10.7 NW 10.7 0.0 1.1
22:07 5.2 2.2 81 1023.8 9.2 W 10.7 0.0 1.1
22:09 5.3 2.3 81 1024.0 9.8 SW 10.7 0.0 1.1
22:10 5.3 2.3 81 1023.9 9.2 W 10.7 0.0 1.1
22:12 5.3 2.3 81 1023.8 9.2 W 12.1 0.0 1.1
00:55 5.8 3.0 82 1019.6 14.5 NW 23.5 0.0 0.0
00:57 5.8 3.0 82 1019.7 13.6 W 23.5 0.0 0.0
00:58 5.8 3.0 82 1019.7 18.3 S 23.5 0.0 0.0
01:00 5.8 3.0 82 1019.7 18.3 NW 23.5 0.0 0.0
01:01 5.8 3.0 82 1019.7 18.3 NW 23.5 0.0 0.0
01:02 5.8 3.0 82 1019.7 18.3 NW 23.5 0.0 0.0
01:03 5.8 3.0 82 1019.7 18.3 NW 23.5 0.0 0.0
01:04 5.8 3.0 82 1019.7 18.3 NW 23.5 0.0 0.0
01:05 5.8 3.0 82 1019.6 18.3 NW 18.3 0.0 0.0
01:28 5.9 3.1 82 1019.7 11.4 SW 17.4 0.0 0.0
01:29 5.9 3.1 82 1019.3 15.2 W 17.4 0.0 0.0
01:31 5.9 3.1 82 1019.5 15.2 NW 18.3 0.0 0.0
01:33 5.9 3.1 82 1019.5 14.5 W 18.3 0.0 0.0
01:35 5.9 3.1 82 1019.6 11.4 W 18.3 0.0 0.0
01:36 5.9 3.1 82 1019.6 9.8 W 18.3 0.0 0.0
01:38 5.9 3.1 82 1019.5 10.7 W 18.3 0.0 0.0
01:40 5.9 3.1 82 1019.6 13.0 W 18.3 0.0 0.0
01:42 5.9 3.1 82 1019.5 10.7 W 18.3 0.0 0.0
01:43 5.9 3.1 82 1019.7 12.1 W 13.0 0.0 0.0
03:21 5.1 2.3 82 1020.3 16.8 W 23.5 0.0 0.1
03:22 5.1 2.3 82 1020.3 16.8 W 22.8 0.0 0.1
03:23 5.1 2.3 82 1020.2 16.8 W 22.8 0.0 0.1
03:24 5.1 2.3 82 1020.4 22.1 W 22.8 0.0 0.1
03:25 5.1 2.3 82 1020.3 16.8 NW 22.8 0.0 0.1
03:26 5.0 2.2 82 1020.4 24.4 NW 24.4 0.0 0.1
03:27 5.0 2.2 82 1020.2 16.8 SW 24.4 0.0 0.1
03:28 5.0 2.2 82 1020.2 15.2 W 24.4 0.0 0.1
03:29 5.0 2.2 82 1020.2 19.0 SW 24.4 0.0 0.1
03:33 4.8 2.0 82 1020.0 19.0 NW 24.4 0.0 0.1
03:42 4.8 2.0 82 1019.7 21.3 W 22.1 0.0 0.1
03:44 4.9 2.1 82 1020.0 10.7 NW 22.1 0.0 0.1
03:45 4.9 2.1 82 1019.8 16.8 SW 22.1 0.0 0.1
03:46 4.9 2.1 82 1019.8 9.8 W 26.6 0.0 0.1
04:17 4.8 2.0 82 1020.4 15.9 NW 19.7 0.0 0.1
04:18 4.8 2.0 82 1020.2 19.0 W 19.7 0.0 0.1
04:19 4.8 2.0 82 1020.2 17.4 W 19.7 0.8 0.1
04:20 4.8 2.0 82 1020.2 15.2 NW 19.7 0.8 0.1
04:21 4.8 2.0 82 1020.3 20.6 NW 20.6 0.8 0.1
04:22 4.8 2.0 82 1020.2 17.4 NW 20.6 0.8 0.1
04:23 4.8 2.0 82 1020.3 22.1 NW 22.1 0.8 0.1
04:44 4.6 1.8 82 1020.2 22.8 W 23.5 0.0 0.2
04:45 4.6 1.8 82 1020.5 22.8 W 23.5 0.0 0.2
04:46 4.6 1.8 82 1020.3 20.6 W 23.5 0.0 0.2
04:48 4.7 1.9 82 1020.5 19.7 SW 22.8 0.0 0.2
04:49 4.6 1.8 82 1020.6 32.0 S 32.0 0.0 0.2
04:50 4.7 1.9 82 1020.9 20.6 W 32.0 0.0 0.2
04:51 4.7 1.9 82 1020.9 22.8 W 32.0 0.0 0.2
04:52 4.7 1.9 82 1021.0 25.9 W 32.0 0.0 0.2
04:53 4.7 1.9 82 1020.9 21.3 W 32.0 0.0 0.2
04:54 4.6 1.8 82 1020.8 18.3 W 32.0 0.0 0.2
04:55 4.6 1.8 82 1020.8 15.2 W 32.0 0.0 0.2
04:56 4.6 1.8 82 1020.9 19.7 NW 32.0 0.0 0.2
04:57 4.5 1.7 82 1020.9 15.9 W 32.0 0.0 0.2
05:49 4.5 1.7 82 1021.2 10.7 NW 27.3 0.0 0.2
05:50 4.5 1.7 82 1021.1 14.5 W 27.3 0.0 0.2
05:51 4.5 1.7 82 1021.1 13.0 W 27.3 0.0 0.2
05:52 4.4 1.6 82 1021.2 15.2 W 27.3 0.0 0.2
05:53 4.4 1.6 82 1021.1 15.2 W 27.3 0.0 0.2
05:54 4.4 1.6 82 1021.1 16.8 W 27.3 0.0 0.2
05:55 4.3 1.5 82 1021.0 11.4 W 27.3 0.0 0.2
05:56 4.2 1.4 82 1020.8 13.0 W 27.3 0.0 0.2
05:57 4.2 1.4 82 1021.1 12.1 NW 21.3 0.0 0.2
05:58 4.2 1.4 82 1020.9 13.0 NW 21.3 0.0 0.2
05:59 4.2 1.4 82 1020.9 13.0 NW 16.8 0.0 0.2
06:51 4.6 1.8 82 1021.2 17.4 NW 21.3 0.0 0.3
06:52 4.6 1.8 82 1021.3 12.1 NW 21.3 0.0 0.3
06:54 4.6 1.8 82 1021.2 21.3 N 21.3 0.0 0.3
06:55 4.6 1.8 82 1021.1 22.1 NW 22.1 0.0 0.3
06:56 4.7 1.9 82 1021.2 15.9 NW 22.1 0.0 0.3
06:57 4.7 1.9 82 1021.4 13.6 NW 22.1 0.0 0.3
06:58 4.7 1.9 82 1021.4 13.6 NW 22.1 0.0 0.3
06:59 4.7 1.9 82 1021.2 19.0 W 22.1 0.0 0.3
07:00 4.7 1.9 82 1021.3 17.4 W 22.1 0.8 0.3
07:01 4.7 1.9 82 1021.5 18.3 W 22.1 0.8 0.3
07:02 4.7 1.9 82 1021.4 15.9 W 22.1 0.8 0.3
07:03 4.7 1.9 82 1021.4 15.9 NW 22.1 0.8 0.3
07:04 4.7 1.9 82 1021.5 16.8 NW 22.1 0.8 0.3
07:05 4.6 1.8 82 1021.4 13.6 SW 19.0 0.0 0.3
07:07 4.6 1.8 82 1021.4 21.3 W 21.3 0.0 0.3
07:09 4.5 1.7 82 1021.4 16.8 NW 21.3 0.0 0.3
07:14 4.5 1.7 82 1021.4 15.2 W 21.3 0.8 0.4
07:15 4.5 1.7 82 1021.5 18.3 NW 21.3 0.0 0.4
07:16 4.5 1.7 82 1021.5 14.5 W 21.3 0.0 0.4
07:18 4.5 1.7 82 1021.5 19.0 W 19.0 0.0 0.4
07:20 4.5 1.7 82 1021.6 15.2 W 19.0 0.0 0.4
07:22 4.5 1.7 82 1021.7 20.6 SW 20.6 0.0 0.4
07:23 4.5 1.7 82 1021.6 15.9 NW 20.6 0.0 0.4
07:24 4.5 1.7 82 1021.6 15.2 NW 20.6 0.0 0.4
07:25 4.5 1.7 82 1021.6 9.8 W 20.6 0.0 0.4
07:26 4.5 1.7 82 1021.6 13.6 W 20.6 0.0 0.4
07:27 4.5 1.7 82 1021.6 16.8 W 20.6 0.0 0.4
07:29 4.5 1.7 82 1021.7 17.4 W 20.6 0.0 0.4
07:30 4.5 1.7 82 1021.6 15.2 NW 22.1 0.0 0.4
07:31 4.5 1.7 82 1021.6 17.4 N 22.1 0.0 0.4
07:32 4.5 1.7 82 1021.8 19.0 W 22.1 0.0 0.4
07:33 4.6 1.8 82 1021.7 18.3 NW 22.1 0.0 0.4
07:34 4.6 1.8 82 1021.6 15.9 SW 22.1 0.0 0.4
07:35 4.6 1.8 82 1021.6 18.3 W 22.1 0.0 0.4
07:36 4.6 1.8 82 1021.6 19.7 NW 22.1 0.0 0.4
07:37 4.6 1.8 82 1021.7 16.8 NW 22.1 0.0 0.4
08:42 4.7 1.9 82 1022.5 11.4 N 21.3 0.0 0.4
08:43 4.7 1.9 82 1022.5 9.8 NW 21.3 0.0 0.4
08:44 4.6 1.8 82 1022.7 13.0 NE 21.3 0.0 0.4
08:45 4.6 1.8 82 1022.6 12.1 W 21.3 0.0 0.4
08:46 4.6 1.8 82 1022.4 16.8 NW 21.3 0.0 0.4
08:47 4.6 1.8 82 1022.4 9.8 W 19.7 0.0 0.4
08:48 4.6 1.8 82 1022.6 12.1 N 19.7 0.0 0.4
08:49 4.6 1.8 82 1022.6 13.6 SW 19.7 0.0 0.4
08:50 4.6 1.8 82 1022.7 13.0 NW 19.7 0.0 0.4
08:51 4.6 1.8 82 1022.6 18.3 W 19.7 0.0 0.4
08:52 4.6 1.8 82 1022.5 14.5 S 18.3 0.0 0.4
08:53 4.6 1.8 82 1022.7 13.6 N 18.3 0.0 0.4
08:54 4.6 1.8 82 1022.7 11.4 NW 18.3 0.0 0.4
08:55 4.6 1.8 82 1022.5 18.3 NW 18.3 0.0 0.4
08:56 4.5 1.7 82 1022.6 17.4 W 18.3 0.0 0.4
08:57 4.6 1.8 82 1022.7 18.3 NW 18.3 0.0 0.4
08:58 4.5 1.7 82 1022.7 16.8 W 18.3 0.0 0.4
08:59 4.5 1.7 82 1022.7 16.8 W 19.7 0.0 0.4
10:02 4.3 1.5 82 1023.8 18.3 NW 21.3 0.0 0.5
10:03 4.2 1.4 82 1023.6 9.2 NW 21.3 0.0 0.5
10:04 4.2 1.4 82 1023.7 13.0 W 21.3 0.0 0.5
10:18 4.4 1.6 82 1023.3 14.5 NW 21.3 0.0 0.5
12:51 5.8 3.0 82 1023.9 13.0 NW 19.7 0.0 0.8
12:52 5.7 2.9 82 1024.0 21.3 W 21.3 0.0 0.8
12:53 5.7 2.9 82 1023.9 13.6 NW 21.3 0.0 0.8
12:54 5.6 2.8 82 1023.9 12.1 W 21.3 0.0 0.8
12:55 5.5 2.7 82 1023.9 13.6 WNW 21.3 0.0 0.8
12:57 5.5 2.7 82 1023.8 12.1 W 21.3 0.8 0.9
12:58 5.4 2.6 82 1023.9 13.6 W 21.3 0.8 0.9
12:59 5.4 2.6 82 1023.8 17.4 W 21.3 0.8 0.9
13:00 5.4 2.6 82 1023.9 13.0 W 21.3 0.8 0.9
13:01 5.4 2.6 82 1023.8 13.0 W 21.3 0.8 0.9
13:02 5.4 2.6 82 1023.9 11.4 NW 21.3 0.0 0.9
13:03 5.4 2.6 82 1024.0 19.7 W 19.7 0.0 0.9
13:04 5.4 2.6 82 1023.9 19.7 W 19.7 0.0 0.9
13:05 5.4 2.6 82 1024.0 20.6 W 20.6 0.0 0.9
13:06 5.4 2.6 82 1024.0 18.3 NW 20.6 0.0 0.9
13:07 5.4 2.6 82 1024.0 19.7 NE 20.6 0.0 0.9
13:09 5.4 2.6 82 1023.8 10.7 W 20.6 0.0 0.9
13:50 6.2 3.4 82 1024.0 14.5 E 20.6 0.0 0.9
13:51 6.2 3.4 82 1024.0 6.9 NW 14.5 0.0 0.9
13:52 6.1 3.3 82 1023.9 7.6 W 14.5 0.0 0.9
13:53 6.1 3.3 82 1024.0 7.6 NW 14.5 0.0 0.9
14:08 6.4 3.6 82 1023.9 12.1 W 13.6 0.0 0.9
21:19 4.9 2.1 82 1024.0 6.9 W 14.5 1.5 1.1
21:21 4.9 2.1 82 1024.1 6.0 W 13.0 0.0 1.1
21:22 4.9 2.1 82 1024.1 8.3 W 13.0 0.0 1.1
21:23 4.9 2.1 82 1024.1 5.4 SW 13.0 0.0 1.1
21:24 4.9 2.1 82 1024.1 8.3 SW 13.0 0.0 1.1
21:25 4.9 2.1 82 1024.2 9.2 SW 13.0 0.0 1.1
21:26 4.9 2.1 82 1024.1 9.8 N 10.7 0.0 1.1
21:27 4.9 2.1 82 1024.1 8.3 W 10.7 0.0 1.1
21:28 5.0 2.2 82 1024.1 13.6 W 13.6 0.0 1.1
21:29 5.0 2.2 82 1024.2 13.6 SW 13.6 0.0 1.1
21:30 5.0 2.2 82 1024.1 15.2 W 15.2 0.0 1.1
21:31 5.0 2.2 82 1024.0 15.2 NW 15.2 0.0 1.1
22:14 5.3 2.5 82 1024.1 9.2 W 12.1 0.0 1.1
22:15 5.3 2.5 82 1024.1 9.8 W 12.1 0.0 1.1
22:17 5.3 2.5 82 1024.0 10.7 W 12.1 0.0 1.1
22:18 5.3 2.5 82 1024.1 8.3 W 12.1 0.0 1.1
00:26 6.2 3.5 83 1019.6 14.5 W 22.8 0.0 0.0
00:28 6.2 3.5 83 1019.7 16.8 NW 22.8 0.0 0.0
00:29 6.2 3.5 83 1019.8 19.7 W 22.8 0.0 0.0
00:30 6.2 3.5 83 1019.7 15.9 NW 22.8 0.0 0.0
00:31 6.2 3.5 83 1019.8 17.4 W 22.8 0.0 0.0
00:32 6.1 3.4 83 1019.8 14.5 W 22.8 0.0 0.0
00:33 6.1 3.4 83 1019.6 20.6 NW 22.8 0.0 0.0
00:34 6.1 3.4 83 1019.6 16.8 W 22.8 0.0 0.0
00:35 6.1 3.4 83 1019.6 16.8 NW 21.3 0.0 0.0
00:37 6.1 3.4 83 1019.7 8.3 W 20.6 0.0 0.0
00:38 6.0 3.3 83 1019.5 11.4 WNW 20.6 0.0 0.0
00:39 6.0 3.3 83 1019.7 12.1 NW 20.6 0.0 0.0
00:40 6.0 3.3 83 1019.7 14.5 W 20.6 0.0 0.0
00:41 5.9 3.2 83 1019.7 17.4 NW 20.6 0.0 0.0
00:42 5.9 3.2 83 1019.8 14.5 SW 20.6 0.0 0.0
00:43 5.9 3.2 83 1019.5 15.9 NW 20.6 0.0 0.0
00:44 5.8 3.1 83 1019.4 16.8 W 17.4 0.0 0.0
00:45 5.9 3.2 83 1019.6 13.6 WNW 17.4 0.0 0.0
00:46 5.8 3.1 83 1019.7 15.2 NW 17.4 0.0 0.0
00:47 5.8 3.1 83 1019.7 15.2 WNW 17.4 0.0 0.0
00:48 5.8 3.1 83 1019.6 14.5 NW 17.4 0.0 0.0
00:49 5.8 3.1 83 1019.6 15.9 NW 17.4 0.0 0.0
00:50 5.8 3.1 83 1019.6 17.4 NW 17.4 0.0 0.0
00:51 5.8 3.1 83 1019.7 19.0 W 19.0 0.0 0.0
00:52 5.8 3.1 83 1019.7 20.6 W 20.6 0.0 0.0
00:53 5.8 3.1 83 1019.6 14.5 W 20.6 0.0 0.0
00:54 5.8 3.1 83 1019.6 23.5 W 23.5 0.0 0.0
00:56 5.8 3.1 83 1019.7 15.9 NW 23.5 0.0 0.0
01:45 5.8 3.1 83 1019.6 9.2 NW 13.6 0.0 0.0
01:47 5.8 3.1 83 1019.5 13.6 NW 13.6 0.0 0.0
01:49 5.8 3.1 83 1019.5 14.5 W 14.5 0.0 0.0
01:51 5.8 3.1 83 1019.5 13.0 W 14.5 0.0 0.0
01:52 5.8 3.1 83 1019.5 11.4 W 15.2 0.0 0.0
03:16 5.1 2.5 83 1020.3 9.8 W 23.5 0.0 0.1
03:17 5.1 2.5 83 1020.2 16.8 NW 23.5 0.0 0.1
03:18 5.1 2.5 83 1020.5 18.3 SW 23.5 0.0 0.1
03:19 5.1 2.5 83 1020.2 15.9 NW 23.5 0.0 0.1
03:30 4.9 2.3 83 1019.9 17.4 SW 24.4 0.0 0.1
03:31 4.9 2.3 83 1020.1 15.9 SW 24.4 0.0 0.1
03:32 4.8 2.2 83 1020.2 13.6 SW 24.4 0.0 0.1
03:34 4.8 2.2 83 1020.0 13.6 W 24.4 0.0 0.1
03:35 4.8 2.2 83 1020.0 12.1 SW 24.4 0.0 0.1
03:36 4.8 2.2 83 1019.9 9.2 W 19.0 0.0 0.1
03:37 4.8 2.2 83 1019.9 16.8 NW 19.0 0.0 0.1
03:38 4.8 2.2 83 1020.0 21.3 W 21.3 0.0 0.1
03:39 4.8 2.2 83 1019.9 15.9 NW 21.3 0.0 0.1
03:40 4.8 2.2 83 1020.0 16.8 NW 21.3 0.0 0.1
03:41 4.8 2.2 83 1019.9 22.1 NW 22.1 0.0 0.1
04:25 4.8 2.2 83 1020.2 19.0 NW 22.1 0.0 0.1
04:26 4.7 2.1 83 1020.3 15.9 N 22.1 0.0 0.1
04:27 4.7 2.1 83 1020.2 16.8 NW 22.1 0.0 0.1
04:28 4.7 2.1 83 1020.2 19.0 NW 22.1 0.8 0.2
04:29 4.7 2.1 83 1020.2 15.9 NW 22.1 0.8 0.2
04:30 4.7 2.1 83 1020.3 16.8 W 22.1 0.8 0.2
04:31 4.7 2.1 83 1020.2 17.4 NW 22.1 0.8 0.2
04:32 4.7 2.1 83 1020.2 15.9 W 22.1 0.8 0.2
04:33 4.7 2.1 83 1020.0 12.1 W 22.1 0.0 0.2
04:39 4.7 2.1 83 1020.3 19.7 N 23.5 0.0 0.2
04:40 4.7 2.1 83 1020.3 8.3 W 23.5 0.0 0.2
04:41 4.6 2.0 83 1020.3 13.0 W 23.5 0.0 0.2
04:42 4.6 2.0 83 1020.5 19.0 NW 23.5 0.0 0.2
04:43 4.6 2.0 83 1020.4 21.3 W 23.5 0.0 0.2
04:58 4.4 1.8 83 1020.7 15.2 NW 32.0 0.0 0.2
04:59 4.4 1.8 83 1020.7 16.8 W 25.9 0.0 0.2
05:00 4.4 1.8 83 1020.7 16.8 W 25.9 0.0 0.2
05:01 4.4 1.8 83 1020.6 16.8 W 25.9 0.0 0.2
05:02 4.4 1.8 83 1020.7 16.8 W 21.3 0.0 0.2
05:03 4.4 1.8 83 1020.6 16.8 W 19.7 0.0 0.2
05:04 4.4 1.8 83 1020.6 16.8 W 19.7 0.0 0.2
05:31 4.7 2.1 83 1021.1 22.8 W 28.9 0.0 0.2
05:32 4.6 2.0 83 1021.1 13.0 W 28.9 0.0 0.2
05:33 4.6 2.0 83 1021.0 16.8 NW 28.9 0.0 0.2
05:34 4.6 2.0 83 1021.0 21.3 NW 28.9 0.0 0.2
05:35 4.5 1.9 83 1021.0 12.1 NW 28.9 0.0 0.2
05:36 4.5 1.9 83 1020.9 17.4 NW 28.9 0.0 0.2
05:37 4.5 1.9 83 1020.8 14.5 SW 28.9 0.0 0.2
05:38 4.5 1.9 83 1020.9 22.8 N 28.9 0.0 0.2
05:39 4.5 1.9 83 1020.9 15.2 NW 28.9 0.0 0.2
05:40 4.4 1.8 83 1020.9 16.8 NW 22.8 0.0 0.2
05:42 4.4 1.8 83 1020.9 19.0 SW 22.8 0.0 0.2
05:43 4.5 1.9 83 1021.1 19.0 SW 22.8 0.0 0.2
05:44 4.4 1.8 83 1021.1 17.4 NW 22.8 0.0 0.2
05:45 4.5 1.9 83 1021.0 20.6 SW 22.8 0.0 0.2
05:46 4.5 1.9 83 1021.2 19.7 W 22.8 0.0 0.2
05:47 4.5 1.9 83 1021.2 27.3 NW 27.3 0.0 0.2
05:48 4.5 1.9 83 1021.1 21.3 NW 27.3 0.0 0.2
06:00 4.1 1.5 83 1021.0 14.5 W 16.8 0.0 0.2
06:01 4.1 1.5 83 1020.8 14.5 W 16.8 0.0 0.2
06:03 4.2 1.6 83 1021.0 25.1 NW 25.1 0.0 0.2
06:04 4.2 1.6 83 1021.3 20.6 W 25.1 0.0 0.2
06:39 4.5 1.9 83 1021.3 13.0 NW 22.1 0.0 0.3
06:40 4.5 1.9 83 1021.2 13.6 NW 22.1 0.0 0.3
06:41 4.5 1.9 83 1021.5 11.4 NW 22.1 0.0 0.3
06:42 4.5 1.9 83 1021.2 14.5 W 19.7 0.0 0.3
06:43 4.5 1.9 83 1021.2 12.1 NW 19.7 0.0 0.3
06:44 4.5 1.9 83 1021.2 14.5 NW 19.7 0.0 0.3
06:45 4.5 1.9 83 1021.2 10.7 NW 18.3 0.0 0.3
06:46 4.5 1.9 83 1021.2 14.5 W 18.3 0.0 0.3
06:47 4.5 1.9 83 1021.0 21.3 W 21.3 0.0 0.3
06:48 4.5 1.9 83 1021.1 19.7 N 21.3 0.0 0.3
06:49 4.5 1.9 83 1021.0 16.8 N 21.3 0.0 0.3
06:50 4.5 1.9 83 1021.2 15.2 W 21.3 0.0 0.3
07:10 4.5 1.9 83 1021.5 13.6 NW 21.3 0.8 0.4
07:12 4.5 1.9 83 1021.7 18.3 W 21.3 0.8 0.4
07:13 4.5 1.9 83 1021.4 15.9 W 21.3 0.8 0.4
07:17 4.5 1.9 83 1021.6 17.4 SW 18.3 0.0 0.4
07:19 4.5 1.9 83 1021.7 11.4 W 19.0 0.0 0.4
07:21 4.5 1.9 83 1021.6 16.8 SW 19.0 0.0 0.4
10:05 4.2 1.6 83 1023.7 15.2 W 20.6 0.0 0.5
10:07 4.1 1.5 83 1023.5 11.4 NW 20.6 0.0 0.5
10:08 4.1 1.5 83 1023.6 10.7 NW 20.6 0.0 0.5
10:09 4.1 1.5 83 1023.6 13.6 NW 20.6 0.0 0.5
10:11 4.1 1.5 83 1023.5 13.6 NW 20.6 0.0 0.5
10:16 4.2 1.6 83 1023.3 19.7 W 19.7 0.0 0.5
10:17 4.4 1.8 83 1023.3 21.3 W 21.3 0.0 0.5
12:28 5.3 2.6 83 1023.7 9.8 NW 19.0 0.0 0.8
12:29 5.4 2.7 83 1023.6 10.7 NW 19.0 0.0 0.8
12:30 5.4 2.7 83 1023.8 11.4 NW 19.0 0.0 0.8
12:31 5.3 2.6 83 1023.7 9.8 W 19.0 0.0 0.8
12:32 5.3 2.6 83 1023.6 10.7 NW 19.0 0.0 0.8
12:33 5.4 2.7 83 1023.7 6.9 SW 15.9 0.0 0.8
12:45 6.0 3.3 83 1024.0 9.8 E 15.9 0.0 0.8
12:47 6.0 3.3 83 1024.1 10.7 NW 15.9 0.0 0.8
12:48 6.0 3.3 83 1024.0 19.7 W 19.7 0.0 0.8
12:49 5.9 3.2 83 1024.1 14.5 W 19.7 0.0 0.8
12:50 5.9 3.2 83 1024.0 13.6 W 19.7 0.0 0.8
13:54 6.1 3.4 83 1024.0 14.5 NW 14.5 0.0 0.9
14:07 6.3 3.6 83 1023.8 13.6 W 13.6 0.0 0.9
22:19 5.3 2.6 83 1024.1 9.2 NW 12.1 0.0 1.1
22:20 5.3 2.6 83 1024.2 12.1 W 12.1 0.0 1.1
22:21 5.3 2.6 83 1024.1 11.4 W 12.1 0.0 1.1
22:22 5.3 2.6 83 1024.1 6.0 W 12.1 0.0 1.1
00:09 6.2 3.7 84 1019.5 15.9 NW 18.3 0.0 0.0
00:11 6.2 3.7 84 1019.6 14.5 W 18.3 0.0 0.0
00:12 6.2 3.7 84 1019.5 19.7 W 19.7 0.0 0.0
00:14 6.2 3.7 84 1019.5 21.3 NW 21.3 0.0 0.0
00:15 6.2 3.7 84 1019.5 19.0 NW 21.3 0.0 0.0
00:16 6.2 3.7 84 1019.6 16.8 W 21.3 0.0 0.0
00:17 6.2 3.7 84 1019.5 12.1 NW 21.3 0.0 0.0
00:18 6.4 3.9 84 1019.7 15.9 NW 21.3 0.0 0.0
00:19 6.2 3.7 84 1019.5 13.6 NW 21.3 0.0 0.0
00:20 6.2 3.7 84 1019.6 16.8 W 21.3 0.0 0.0
00:21 6.2 3.7 84 1019.5 13.0 W 21.3 0.0 0.0
00:22 6.2 3.7 84 1019.7 21.3 NW 21.3 0.0 0.0
00:23 6.2 3.7 84 1019.7 17.4 W 21.3 0.0 0.0
00:24 6.2 3.7 84 1019.3 22.8 NW 22.8 0.0 0.0
00:25 6.3 3.8 84 1019.6 21.3 SW 22.8 0.0 0.0
00:27 6.2 3.7 84 1019.7 10.7 NW 22.8 0.0 0.0
01:55 5.8 3.3 84 1019.5 10.7 W 15.2 0.0 0.0
01:56 5.8 3.3 84 1019.5 8.3 SW 15.2 0.0 0.0
01:58 5.8 3.3 84 1019.5 8.3 W 15.2 0.0 0.0
02:00 5.8 3.3 84 1019.5 13.6 NW 15.2 0.0 0.0
02:02 5.8 3.3 84 1019.6 22.1 NW 22.1 0.0 0.0
03:05 5.0 2.5 84 1020.2 10.7 NW 22.1 0.0 0.1
03:07 5.0 2.5 84 1020.0 17.4 NW 17.4 0.0 0.1
03:08 5.0 2.5 84 1020.0 19.0 NW 19.0 0.0 0.1
03:09 5.0 2.5 84 1020.0 8.3 W 22.1 0.0 0.1
03:10 5.0 2.5 84 1020.1 13.0 W 22.1 0.0 0.1
03:11 5.0 2.5 84 1020.2 23.5 W 23.5 0.0 0.1
03:12 5.0 2.5 84 1019.9 22.8 W 23.5 0.0 0.1
03:13 5.0 2.5 84 1020.1 15.2 W 23.5 0.0 0.1
03:14 5.0 2.5 84 1020.1 15.2 NNW 23.5 0.0 0.1
03:15 5.0 2.5 84 1020.2 22.8 NW 23.5 0.0 0.1
04:34 4.7 2.2 84 1020.3 7.6 NW 22.1 0.0 0.2
04:35 4.7 2.2 84 1020.1 13.0 W 20.6 0.0 0.2
04:36 4.7 2.2 84 1020.3 16.8 NW 19.0 0.0 0.2
04:37 4.7 2.2 84 1020.2 23.5 NW 23.5 0.0 0.2
04:38 4.6 2.1 84 1020.3 17.4 SW 23.5 0.0 0.2
05:06 4.1 1.6 84 1020.6 10.7 NW 19.7 0.0 0.2
05:07 4.1 1.6 84 1020.5 10.7 NW 17.4 0.0 0.2
05:09 4.1 1.6 84 1020.7 13.6 W 17.4 0.0 0.2
05:10 4.1 1.6 84 1020.8 15.9 NW 16.8 0.0 0.2
05:11 4.2 1.7 84 1020.7 15.2 W 17.4 0.0 0.2
05:17 4.4 1.9 84 1020.6 18.3 W 20.6 0.0 0.2
05:19 4.4 1.9 84 1020.8 18.3 SW 20.6 0.0 0.2
05:20 4.5 2.0 84 1020.7 13.0 NW 20.6 0.0 0.2
05:21 4.5 2.0 84 1020.7 13.0 W 20.6 0.0 0.2
05:22 4.5 2.0 84 1020.8 6.9 SW 20.6 0.0 0.2
05:23 4.5 2.0 84 1020.7 11.4 W 20.6 0.0 0.2
05:24 4.6 2.1 84 1020.8 12.1 NW 20.6 0.0 0.2
05:25 4.6 2.1 84 1020.7 16.8 W 20.6 0.0 0.2
05:26 4.6 2.1 84 1020.7 15.2 N 20.6 0.0 0.2
05:27 4.6 2.1 84 1020.7 21.3 W 21.3 0.0 0.2
05:28 4.6 2.1 84 1020.9 14.5 NW 21.3 0.0 0.2
05:29 4.7 2.2 84 1021.0 28.9 SW 28.9 0.0 0.2
05:30 4.7 2.2 84 1021.0 22.1 NW 28.9 0.0 0.2
06:05 4.2 1.7 84 1021.1 13.6 WNW 25.1 0.0 0.2
06:06 4.3 1.8 84 1021.1 15.9 W 25.1 0.0 0.2
06:08 4.2 1.7 84 1021.2 13.0 SW 25.1 0.0 0.2
06:09 4.2 1.7 84 1021.3 11.4 W 25.1 0.0 0.2
06:11 4.1 1.6 84 1021.2 10.7 SW 25.1 0.0 0.2
06:12 4.1 1.6 84 1021.0 13.0 SW 25.1 0.0 0.2
06:13 4.1 1.6 84 1021.2 10.7 SW 20.6 0.0 0.2
06:14 4.1 1.6 84 1021.2 9.2 NW 15.9 0.0 0.2
06:15 4.0 1.5 84 1021.1 12.1 SW 15.9 0.0 0.2
06:16 4.0 1.5 84 1021.2 12.1 W 13.6 0.0 0.2
06:17 4.0 1.5 84 1021.1 13.0 NW 13.6 0.0 0.2
06:18 4.0 1.5 84 1021.2 13.0 W 13.6 0.0 0.2
06:19 4.0 1.5 84 1021.1 18.3 NW 18.3 0.0 0.2
06:29 4.4 1.9 84 1021.2 15.2 W 19.7 0.0 0.2
06:30 4.4 1.9 84 1021.1 16.8 W 19.7 0.0 0.3
06:31 4.4 1.9 84 1021.2 20.6 W 22.1 0.8 0.3
06:32 4.5 2.0 84 1021.1 19.0 W 22.1 0.8 0.3
06:33 4.5 2.0 84 1021.2 15.2 W 22.1 0.8 0.3
06:34 4.5 2.0 84 1021.2 19.7 W 22.1 0.8 0.3
06:35 4.5 2.0 84 1021.3 12.1 SW 22.1 0.8 0.3
06:37 4.5 2.0 84 1021.4 15.2 W 22.1 0.0 0.3
06:38 4.5 2.0 84 1021.3 14.5 SW 22.1 0.0 0.3
10:12 4.1 1.6 84 1023.2 19.0 W 19.0 0.0 0.5
10:14 4.1 1.6 84 1023.4 15.9 W 19.0 0.0 0.5
10:15 4.2 1.7 84 1023.4 16.8 W 19.0 0.0 0.5
12:18 4.8 2.3 84 1023.8 9.2 W 18.3 0.8 0.8
12:24 5.3 2.8 84 1023.7 15.2 W 19.0 0.8 0.8
12:25 5.3 2.8 84 1023.7 11.4 NW 19.0 0.0 0.8
12:26 5.3 2.8 84 1023.7 12.1 WNW 19.0 0.0 0.8
12:27 5.3 2.8 84 1023.7 13.0 NW 19.0 0.0 0.8
12:34 5.4 2.9 84 1023.7 6.9 SW 15.9 0.0 0.8
12:43 5.9 3.4 84 1023.8 12.1 W 14.5 0.0 0.8
12:44 5.9 3.4 84 1023.9 15.9 NW 15.9 0.0 0.8
12:46 6.0 3.5 84 1023.8 10.7 NW 15.9 0.0 0.8
13:55 6.1 3.6 84 1023.9 11.4 NW 14.5 0.0 0.9
14:05 6.3 3.8 84 1023.8 13.0 W 13.0 0.0 0.9
22:24 5.3 2.8 84 1024.1 8.3 W 12.1 0.0 1.1
22:25 5.3 2.8 84 1024.2 9.8 NW 12.1 0.0 1.1
22:26 5.3 2.8 84 1024.1 12.1 NW 12.1 0.0 1.1
22:27 5.3 2.8 84 1024.2 10.7 SW 12.1 0.0 1.1
22:28 5.3 2.8 84 1024.1 9.8 NW 12.1 0.0 1.1
00:00 6.2 3.9 85 1019.3 15.2 W 23.5 0.0 0.0
00:01 6.2 3.9 85 1019.4 15.2 W 23.5 0.0 0.0
00:03 6.2 3.9 85 1019.3 15.2 W 23.5 0.0 0.0
00:04 6.2 3.9 85 1019.4 15.2 W 23.5 0.0 0.0
00:06 6.2 3.9 85 1019.6 11.4 SW 18.3 0.0 0.0
00:08 6.4 4.1 85 1019.5 12.1 SW 18.3 0.0 0.0
02:04 5.7 3.4 85 1019.7 9.8 SW 22.1 0.0 0.0
02:06 5.7 3.4 85 1019.7 13.6 W 22.1 0.0 0.0
02:08 5.7 3.4 85 1019.6 16.8 NW 22.1 0.0 0.0
02:09 5.6 3.3 85 1019.7 13.6 W 22.1 0.0 0.0
02:10 5.6 3.3 85 1019.7 9.8 W 22.1 0.0 0.0
02:11 5.6 3.3 85 1019.6 6.9 NW 22.1 0.0 0.0
02:12 5.6 3.3 85 1019.6 10.7 W 22.1 0.0 0.0
02:13 5.5 3.2 85 1019.7 14.5 NW 19.0 0.0 0.0
02:14 5.5 3.2 85 1019.5 10.7 W 16.8 0.0 0.0
02:15 5.4 3.1 85 1019.9 9.2 W 16.8 0.0 0.0
02:56 5.1 2.8 85 1020.2 19.7 W 32.0 0.0 0.0
02:57 5.1 2.8 85 1019.8 16.8 W 32.0 0.0 0.1
02:58 5.1 2.8 85 1020.1 14.5 NW 22.8 0.0 0.1
03:00 5.1 2.8 85 1020.1 9.8 W 22.1 0.0 0.1
03:01 5.1 2.8 85 1020.1 9.8 W 22.1 0.0 0.1
03:02 5.0 2.7 85 1020.0 15.2 W 22.1 0.0 0.1
03:03 5.0 2.7 85 1020.2 17.4 W 22.1 0.0 0.1
03:04 5.0 2.7 85 1020.1 14.5 NW 22.1 0.0 0.1
05:12 4.2 1.9 85 1020.7 19.7 S 19.7 0.0 0.2
05:13 4.2 1.9 85 1020.7 14.5 NE 19.7 0.0 0.2
05:14 4.3 2.0 85 1020.7 14.5 W 19.7 0.0 0.2
05:15 4.3 2.0 85 1020.7 15.9 W 19.7 0.0 0.2
05:16 4.3 2.0 85 1020.8 20.6 N 20.6 0.0 0.2
06:20 4.0 1.7 85 1021.0 15.9 W 18.3 0.0 0.2
06:22 4.1 1.8 85 1021.1 14.5 NW 18.3 0.0 0.2
06:23 4.1 1.8 85 1021.2 14.5 NW 18.3 0.0 0.2
06:24 4.1 1.8 85 1021.1 17.4 WNW 18.3 0.0 0.2
06:25 4.2 1.9 85 1021.1 14.5 W 18.3 0.0 0.2
06:26 4.2 1.9 85 1021.2 13.0 W 18.3 0.0 0.2
06:27 4.3 2.0 85 1021.0 19.7 NW 19.7 0.0 0.2
06:28 4.3 2.0 85 1021.0 14.5 W 19.7 0.0 0.2
12:19 4.9 2.6 85 1023.7 10.7 W 18.3 0.8 0.8
12:22 5.1 2.8 85 1023.8 16.8 NW 16.8 0.8 0.8
12:23 5.2 2.9 85 1023.8 19.0 W 19.0 0.8 0.8
12:35 5.5 3.2 85 1023.7 9.2 W 13.0 0.0 0.8
12:36 5.5 3.2 85 1023.7 9.2 W 13.0 0.0 0.8
12:37 5.6 3.3 85 1023.7 9.2 SE 11.4 0.0 0.8
12:38 5.6 3.3 85 1023.7 11.4 W 11.4 0.0 0.8
12:39 5.7 3.4 85 1023.5 10.7 NW 11.4 0.0 0.8
12:40 5.8 3.5 85 1023.7 10.7 NW 11.4 0.0 0.8
12:41 5.8 3.5 85 1023.9 10.7 NW 11.4 0.0 0.8
12:42 5.9 3.6 85 1023.7 12.1 NW 12.1 0.0 0.8
13:57 6.1 3.8 85 1024.1 6.9 W 14.5 0.0 0.9
14:00 6.2 3.9 85 1024.0 6.9 NW 14.5 0.0 0.9
14:01 6.2 3.9 85 1023.9 6.9 NW 14.5 0.0 0.9
14:03 6.2 3.9 85 1024.1 9.8 NW 14.5 0.0 0.9
14:04 6.3 4.0 85 1024.0 8.3 W 12.1 0.0 0.9
22:29 5.2 2.9 85 1024.2 10.7 N 12.1 0.8 1.2
22:30 5.2 2.9 85 1024.1 7.6 W 12.1 0.8 1.2
22:31 5.2 2.9 85 1024.2 7.6 NW 12.1 0.8 1.2
22:32 5.1 2.8 85 1024.1 5.4 NW 12.1 0.8 1.2
22:33 5.1 2.8 85 1023.9 6.0 W 12.1 0.8 1.2
22:34 5.1 2.8 85 1023.9 6.0 W 12.1 0.0 1.2
22:35 5.1 2.8 85 1024.1 6.9 NW 12.1 0.0 1.2
22:37 5.0 2.7 85 1023.9 8.3 NW 10.7 0.0 1.2
22:38 5.0 2.7 85 1023.9 6.0 W 10.7 0.0 1.2
02:16 5.4 3.2 86 1020.0 23.5 SW 23.5 0.0 0.0
02:17 5.4 3.2 86 1020.0 12.1 W 23.5 0.0 0.0
02:18 5.3 3.2 86 1019.9 19.7 NW 23.5 0.0 0.0
02:19 5.3 3.2 86 1019.9 19.7 W 23.5 0.0 0.0
02:20 5.2 3.1 86 1019.8 17.4 NW 23.5 0.0 0.0
02:21 5.1 3.0 86 1019.9 17.4 NW 23.5 0.0 0.0
02:22 5.1 3.0 86 1019.9 19.0 NW 23.5 0.0 0.0
02:51 5.0 2.9 86 1019.9 19.0 NW 32.0 0.0 0.1
02:52 5.0 2.9 86 1020.0 19.0 W 32.0 0.0 0.1
02:53 5.0 2.9 86 1020.0 14.5 NW 32.0 0.0 0.1
02:54 5.0 2.9 86 1020.1 13.6 NW 32.0 0.0 0.1
02:55 5.1 3.0 86 1019.8 21.3 W 32.0 0.0 0.1
12:20 5.0 2.9 86 1023.8 13.0 W 18.3 1.5 0.8
13:59 6.2 4.0 86 1024.0 9.8 NW 14.5 0.0 0.9
14:02 6.2 4.0 86 1023.9 8.3 N 14.5 0.0 0.9
22:39 5.0 2.9 86 1023.9 4.5 W 10.7 0.0 1.2
22:40 4.9 2.8 86 1023.8 5.4 W 8.3 0.0 1.2
22:41 4.9 2.8 86 1024.0 3.8 W 8.3 0.0 1.2
22:42 4.9 2.8 86 1024.0 5.4 W 8.3 0.0 1.2
22:43 4.8 2.7 86 1023.7 5.4 W 8.3 0.0 1.2
22:44 4.8 2.7 86 1023.9 4.5 W 8.3 0.0 1.2
22:45 4.7 2.6 86 1023.8 3.8 W 8.3 0.0 1.2
22:46 4.7 2.6 86 1024.0 3.8 W 8.3 0.0 1.2
22:47 4.7 2.6 86 1024.0 3.8 W 6.0 0.0 1.2
22:50 4.6 2.5 86 1023.8 4.5 NW 5.4 0.0 1.2
02:23 5.0 3.0 87 1020.2 14.5 W 23.5 0.0 0.0
02:24 4.9 2.9 87 1019.9 11.4 W 23.5 0.0 0.0
02:25 4.9 2.9 87 1020.0 14.5 W 23.5 0.0 0.1
02:26 4.8 2.8 87 1019.9 11.4 NW 23.5 0.8 0.1
02:28 4.8 2.8 87 1020.0 12.1 NW 19.7 0.8 0.1
02:40 4.8 2.8 87 1019.7 11.4 NW 19.0 0.0 0.1
02:41 4.8 2.8 87 1019.9 13.0 NW 19.0 0.0 0.1
02:42 4.8 2.8 87 1019.8 14.5 SW 19.0 0.0 0.1
02:43 4.8 2.8 87 1019.9 9.8 SW 19.0 0.0 0.1
02:44 4.8 2.8 87 1020.1 7.6 NW 19.0 0.0 0.1
02:45 4.8 2.8 87 1019.8 11.4 SW 19.0 0.0 0.1
02:46 4.9 2.9 87 1019.9 13.0 W 19.0 0.0 0.1
02:47 4.8 2.8 87 1019.9 13.0 W 19.0 0.0 0.1
02:48 4.9 2.9 87 1020.0 21.3 NNW 32.0 0.0 0.1
02:49 4.9 2.9 87 1019.9 22.8 S 32.0 0.0 0.1
22:49 4.6 2.6 87 1023.8 4.5 W 5.4 0.0 1.2
22:51 4.6 2.6 87 1024.0 4.5 W 5.4 0.0 1.2
22:52 4.6 2.6 87 1023.9 4.5 W 5.4 0.0 1.2
22:53 4.6 2.6 87 1023.8 4.5 NW 5.4 0.0 1.2
22:54 4.6 2.6 87 1023.8 4.5 W 4.5 0.0 1.2
22:55 4.5 2.5 87 1023.8 5.4 W 5.4 0.0 1.2
22:56 4.5 2.5 87 1023.8 4.5 W 5.4 0.0 1.2
22:57 4.5 2.5 87 1023.8 4.5 W 5.4 0.0 1.2
22:59 4.5 2.5 87 1023.6 5.4 NW 5.4 0.0 1.2
23:00 4.5 2.5 87 1023.8 5.4 NW 5.4 0.0 1.2
23:01 4.5 2.5 87 1023.7 5.4 W 5.4 0.0 1.2
23:02 4.5 2.5 87 1023.8 6.0 W 6.0 0.0 1.2
23:03 4.5 2.5 87 1023.8 3.8 W 6.0 0.0 1.2
23:04 4.5 2.5 87 1023.7 5.4 W 6.0 0.0 1.2
23:05 4.4 2.4 87 1023.9 6.0 W 6.0 0.0 1.2
23:06 4.5 2.5 87 1023.8 6.9 NW 6.9 0.0 1.2
23:08 4.4 2.4 87 1023.8 9.2 NW 9.2 0.0 1.2
02:29 4.7 2.9 88 1020.0 19.7 W 19.7 0.8 0.1
02:30 4.7 2.9 88 1019.7 14.5 N 19.7 0.8 0.1
02:31 4.6 2.8 88 1019.7 17.4 NW 19.7 0.0 0.1
02:32 4.6 2.8 88 1020.1 13.0 W 19.7 0.0 0.1
02:33 4.6 2.8 88 1019.9 10.7 W 19.7 0.0 0.1
02:34 4.6 2.8 88 1019.9 15.2 W 19.7 0.0 0.1
02:35 4.6 2.8 88 1019.9 9.8 S 19.7 0.0 0.1
02:36 4.7 2.9 88 1019.9 14.5 W 19.7 0.0 0.1
02:37 4.7 2.9 88 1019.8 14.5 W 19.7 0.0 0.1
02:38 4.7 2.9 88 1019.7 19.0 NW 19.7 0.0 0.1
02:39 4.7 2.9 88 1019.8 15.2 SW 19.0 0.0 0.1
23:09 4.4 2.6 88 1023.9 5.4 W 9.2 0.0 1.2
23:11 4.4 2.6 88 1023.9 4.5 W 9.2 0.0 1.2
23:12 4.4 2.6 88 1023.7 2.2 W 9.2 0.0 1.2
23:14 4.4 2.6 88 1023.9 3.8 W 9.2 0.0 1.2
23:16 4.5 2.7 88 1023.9 6.0 SW 9.2 0.0 1.2
23:17 4.5 2.7 88 1023.9 6.0 W 9.2 0.0 1.2
23:19 4.5 2.7 88 1023.8 8.3 SW 8.3 0.0 1.2
23:20 4.5 2.7 88 1024.0 9.8 W 9.8 0.0 1.2
23:21 4.5 2.7 88 1023.9 13.0 SW 13.0 0.0 1.2
23:22 4.5 2.7 88 1023.7 12.1 SW 13.0 0.0 1.2
23:23 4.5 2.8 89 1023.7 8.3 SW 13.0 0.0 1.2
23:24 4.6 2.9 89 1023.6 10.7 SW 13.0 0.0 1.2
23:25 4.6 2.9 89 1023.9 9.8 SW 13.0 0.0 1.2
23:27 4.6 2.9 89 1023.7 7.6 W 13.0 0.0 1.2
23:28 4.6 2.9 89 1023.8 9.8 W 13.0 0.0 1.2
23:29 4.7 3.0 89 1023.7 8.3 SW 13.0 0.0 1.2
23:30 4.7 3.0 89 1023.7 9.8 W 13.0 0.0 1.2
23:31 4.7 3.0 89 1023.8 11.4 SW 13.0 0.0 1.2
23:32 4.7 3.0 89 1023.6 8.3 W 11.4 0.0 1.2
23:33 4.7 3.0 89 1023.9 12.1 SW 12.1 0.0 1.2
23:34 4.7 3.0 89 1023.9 9.2 W 12.1 0.0 1.2
23:35 4.7 3.0 89 1023.9 9.2 W 12.1 0.0 1.2
23:37 4.7 3.0 89 1023.8 7.6 SW 12.1 0.0 1.2
23:38 4.8 3.1 89 1023.9 10.7 SW 12.1 0.0 1.2
23:39 4.8 3.1 89 1023.9 10.7 SW 12.1 0.0 1.2
23:40 4.8 3.1 89 1023.8 9.8 W 12.1 0.0 1.2
23:42 4.8 3.1 89 1023.7 9.2 SW 12.1 0.0 1.2
23:43 4.8 3.1 89 1023.8 15.9 SW 15.9 0.0 1.2
23:44 4.9 3.2 89 1023.7 9.2 SW 15.9 0.0 1.2
23:53 4.9 3.2 89 1023.9 9.8 SW 15.9 0.0 1.2
23:54 4.9 3.2 89 1024.0 14.5 SW 14.5 0.0 1.2
23:55 4.9 3.2 89 1023.9 9.2 SW 14.5 0.0 1.2
23:56 4.8 3.1 89 1023.8 9.2 W 14.5 0.0 1.2
23:57 4.8 3.1 89 1023.9 12.1 W 14.5 0.0 1.2
23:59 4.8 3.1 89 1023.9 6.0 W 14.5 0.0 1.2
23:45 4.8 3.3 90 1023.9 9.8 NW 15.9 0.0 1.2
23:46 4.9 3.4 90 1023.7 10.7 SW 15.9 0.0 1.2
23:47 4.9 3.4 90 1023.7 10.7 SW 15.9 0.0 1.2
23:48 4.9 3.4 90 1023.8 10.7 W 15.9 0.0 1.2
23:49 4.9 3.4 90 1023.9 10.7 SW 15.9 0.0 1.2
23:50 4.9 3.4 90 1023.9 12.1 W 15.9 0.0 1.2
23:51 4.9 3.4 90 1023.9 11.4 SW 15.9 0.0 1.2

UK - WEATHER STATION TOPSITES - UK World Weather Websites

This is a private weather station, never base important decisions or events on data from this weather station. Although every effort has been made to make the data as accurate as possible it does not meet MetOffice standards. It is proved as a guide of local weather conditions. We accept no liability for any loss which may arise from use of the data.

Copyright © Carnkie Weather 2009 - 2017.